<?xml version="1.0" encoding="UTF-8" standalone="no" ?>
<gpx xmlns="http://www.topografix.com/GPX/1/1" xmlns:xsi="http://www.w3.org/2001/XMLSchema-instance" xsi:schemaLocation="http://www.topografix.com/GPX/1/1 http://www.topografix.com/GPX/1/1/gpx.xsd" version="1.1" creator="VisuGPX - https://www.visugpx.com">
  <metadata>
    <name>2021-03-04 16:12:50</name>
  </metadata>
  <trk>
    <name><![CDATA[2021-03-04 16:12:50]]></name>
    <trkseg>
      <trkpt lat="47.55434" lon="4.30899">
        <ele>235.66</ele>
        <time>2021-03-04T12:28:30Z</time>
      </trkpt>
      <trkpt lat="47.55428" lon="4.30898">
        <ele>239.02</ele>
        <time>2021-03-04T12:28:49Z</time>
      </trkpt>
      <trkpt lat="47.55435" lon="4.30904">
        <ele>238.06</ele>
        <time>2021-03-04T12:29:04Z</time>
      </trkpt>
      <trkpt lat="47.55439" lon="4.30892">
        <ele>252.96</ele>
        <time>2021-03-04T12:29:16Z</time>
      </trkpt>
      <trkpt lat="47.55441" lon="4.30898">
        <ele>244.31</ele>
        <time>2021-03-04T12:29:39Z</time>
      </trkpt>
      <trkpt lat="47.55444" lon="4.30898">
        <ele>248.64</ele>
        <time>2021-03-04T12:30:01Z</time>
      </trkpt>
      <trkpt lat="47.55444" lon="4.30898">
        <ele>250.56</ele>
        <time>2021-03-04T12:30:20Z</time>
      </trkpt>
      <trkpt lat="47.55425" lon="4.30892">
        <ele>252.96</ele>
        <time>2021-03-04T12:30:44Z</time>
      </trkpt>
      <trkpt lat="47.5543" lon="4.30897">
        <ele>247.68</ele>
        <time>2021-03-04T12:31:15Z</time>
      </trkpt>
      <trkpt lat="47.55432" lon="4.30896">
        <ele>246.72</ele>
        <time>2021-03-04T12:31:18Z</time>
      </trkpt>
      <trkpt lat="47.55435" lon="4.30892">
        <ele>247.68</ele>
        <time>2021-03-04T12:31:23Z</time>
      </trkpt>
      <trkpt lat="47.55438" lon="4.30887">
        <ele>248.16</ele>
        <time>2021-03-04T12:31:27Z</time>
      </trkpt>
      <trkpt lat="47.55435" lon="4.30836">
        <ele>250.08</ele>
        <time>2021-03-04T12:31:41Z</time>
      </trkpt>
      <trkpt lat="47.55442" lon="4.30786">
        <ele>250.08</ele>
        <time>2021-03-04T12:31:54Z</time>
      </trkpt>
      <trkpt lat="47.55469" lon="4.30756">
        <ele>256.33</ele>
        <time>2021-03-04T12:32:09Z</time>
      </trkpt>
      <trkpt lat="47.55474" lon="4.30739">
        <ele>257.29</ele>
        <time>2021-03-04T12:32:15Z</time>
      </trkpt>
      <trkpt lat="47.55497" lon="4.3072">
        <ele>260.17</ele>
        <time>2021-03-04T12:32:31Z</time>
      </trkpt>
      <trkpt lat="47.55524" lon="4.30697">
        <ele>260.17</ele>
        <time>2021-03-04T12:32:49Z</time>
      </trkpt>
      <trkpt lat="47.55545" lon="4.30682">
        <ele>261.14</ele>
        <time>2021-03-04T12:33:07Z</time>
      </trkpt>
      <trkpt lat="47.55563" lon="4.30669">
        <ele>261.14</ele>
        <time>2021-03-04T12:33:23Z</time>
      </trkpt>
      <trkpt lat="47.55581" lon="4.30654">
        <ele>263.54</ele>
        <time>2021-03-04T12:33:40Z</time>
      </trkpt>
      <trkpt lat="47.55599" lon="4.30639">
        <ele>267.38</ele>
        <time>2021-03-04T12:33:57Z</time>
      </trkpt>
      <trkpt lat="47.55617" lon="4.30626">
        <ele>270.75</ele>
        <time>2021-03-04T12:34:14Z</time>
      </trkpt>
      <trkpt lat="47.55636" lon="4.30615">
        <ele>272.19</ele>
        <time>2021-03-04T12:34:33Z</time>
      </trkpt>
      <trkpt lat="47.55658" lon="4.30609">
        <ele>275.56</ele>
        <time>2021-03-04T12:34:52Z</time>
      </trkpt>
      <trkpt lat="47.5568" lon="4.30602">
        <ele>277.96</ele>
        <time>2021-03-04T12:35:10Z</time>
      </trkpt>
      <trkpt lat="47.557" lon="4.30597">
        <ele>283.73</ele>
        <time>2021-03-04T12:35:28Z</time>
      </trkpt>
      <trkpt lat="47.55717" lon="4.3059">
        <ele>288.05</ele>
        <time>2021-03-04T12:35:44Z</time>
      </trkpt>
      <trkpt lat="47.55731" lon="4.30582">
        <ele>292.38</ele>
        <time>2021-03-04T12:35:58Z</time>
      </trkpt>
      <trkpt lat="47.55748" lon="4.30568">
        <ele>296.22</ele>
        <time>2021-03-04T12:36:16Z</time>
      </trkpt>
      <trkpt lat="47.55764" lon="4.30553">
        <ele>298.63</ele>
        <time>2021-03-04T12:36:34Z</time>
      </trkpt>
      <trkpt lat="47.55781" lon="4.30539">
        <ele>301.99</ele>
        <time>2021-03-04T12:36:51Z</time>
      </trkpt>
      <trkpt lat="47.55791" lon="4.3053">
        <ele>305.36</ele>
        <time>2021-03-04T12:37:03Z</time>
      </trkpt>
      <trkpt lat="47.55792" lon="4.30528">
        <ele>305.84</ele>
        <time>2021-03-04T12:37:05Z</time>
      </trkpt>
      <trkpt lat="47.55802" lon="4.30521">
        <ele>307.76</ele>
        <time>2021-03-04T12:37:15Z</time>
      </trkpt>
      <trkpt lat="47.55803" lon="4.3052">
        <ele>308.24</ele>
        <time>2021-03-04T12:37:16Z</time>
      </trkpt>
      <trkpt lat="47.55804" lon="4.30519">
        <ele>308.24</ele>
        <time>2021-03-04T12:37:17Z</time>
      </trkpt>
      <trkpt lat="47.55819" lon="4.30507">
        <ele>312.57</ele>
        <time>2021-03-04T12:37:34Z</time>
      </trkpt>
      <trkpt lat="47.55833" lon="4.30499">
        <ele>316.41</ele>
        <time>2021-03-04T12:37:50Z</time>
      </trkpt>
      <trkpt lat="47.55848" lon="4.30488">
        <ele>321.22</ele>
        <time>2021-03-04T12:38:06Z</time>
      </trkpt>
      <trkpt lat="47.55863" lon="4.30479">
        <ele>324.1</ele>
        <time>2021-03-04T12:38:21Z</time>
      </trkpt>
      <trkpt lat="47.55878" lon="4.30469">
        <ele>326.99</ele>
        <time>2021-03-04T12:38:36Z</time>
      </trkpt>
      <trkpt lat="47.55892" lon="4.30459">
        <ele>330.83</ele>
        <time>2021-03-04T12:38:51Z</time>
      </trkpt>
      <trkpt lat="47.55908" lon="4.30451">
        <ele>332.75</ele>
        <time>2021-03-04T12:39:06Z</time>
      </trkpt>
      <trkpt lat="47.55926" lon="4.30442">
        <ele>335.16</ele>
        <time>2021-03-04T12:39:23Z</time>
      </trkpt>
      <trkpt lat="47.55945" lon="4.30438">
        <ele>338.04</ele>
        <time>2021-03-04T12:39:41Z</time>
      </trkpt>
      <trkpt lat="47.55963" lon="4.30442">
        <ele>343.81</ele>
        <time>2021-03-04T12:39:59Z</time>
      </trkpt>
      <trkpt lat="47.55974" lon="4.3045">
        <ele>350.06</ele>
        <time>2021-03-04T12:40:13Z</time>
      </trkpt>
      <trkpt lat="47.55988" lon="4.30463">
        <ele>353.9</ele>
        <time>2021-03-04T12:40:28Z</time>
      </trkpt>
      <trkpt lat="47.56002" lon="4.30483">
        <ele>360.63</ele>
        <time>2021-03-04T12:40:45Z</time>
      </trkpt>
      <trkpt lat="47.56002" lon="4.30485">
        <ele>361.59</ele>
        <time>2021-03-04T12:40:46Z</time>
      </trkpt>
      <trkpt lat="47.56008" lon="4.30504">
        <ele>379.86</ele>
        <time>2021-03-04T12:40:59Z</time>
      </trkpt>
      <trkpt lat="47.56021" lon="4.30532">
        <ele>397.16</ele>
        <time>2021-03-04T12:41:16Z</time>
      </trkpt>
      <trkpt lat="47.56039" lon="4.30563">
        <ele>399.08</ele>
        <time>2021-03-04T12:41:32Z</time>
      </trkpt>
      <trkpt lat="47.56059" lon="4.30599">
        <ele>403.89</ele>
        <time>2021-03-04T12:41:50Z</time>
      </trkpt>
      <trkpt lat="47.56077" lon="4.30634">
        <ele>410.14</ele>
        <time>2021-03-04T12:42:07Z</time>
      </trkpt>
      <trkpt lat="47.56095" lon="4.30662">
        <ele>408.7</ele>
        <time>2021-03-04T12:42:21Z</time>
      </trkpt>
      <trkpt lat="47.56119" lon="4.30701">
        <ele>400.05</ele>
        <time>2021-03-04T12:42:37Z</time>
      </trkpt>
      <trkpt lat="47.56143" lon="4.30743">
        <ele>392.84</ele>
        <time>2021-03-04T12:42:51Z</time>
      </trkpt>
      <trkpt lat="47.56168" lon="4.30805">
        <ele>387.07</ele>
        <time>2021-03-04T12:43:07Z</time>
      </trkpt>
      <trkpt lat="47.56199" lon="4.30843">
        <ele>388.03</ele>
        <time>2021-03-04T12:43:21Z</time>
      </trkpt>
      <trkpt lat="47.56231" lon="4.30885">
        <ele>386.11</ele>
        <time>2021-03-04T12:43:36Z</time>
      </trkpt>
      <trkpt lat="47.56278" lon="4.30946">
        <ele>381.3</ele>
        <time>2021-03-04T12:43:57Z</time>
      </trkpt>
      <trkpt lat="47.56331" lon="4.31">
        <ele>376.01</ele>
        <time>2021-03-04T12:44:15Z</time>
      </trkpt>
      <trkpt lat="47.56385" lon="4.31072">
        <ele>370.24</ele>
        <time>2021-03-04T12:44:26Z</time>
      </trkpt>
      <trkpt lat="47.56481" lon="4.31195">
        <ele>365.92</ele>
        <time>2021-03-04T12:44:42Z</time>
      </trkpt>
      <trkpt lat="47.56558" lon="4.31284">
        <ele>366.4</ele>
        <time>2021-03-04T12:44:57Z</time>
      </trkpt>
      <trkpt lat="47.56649" lon="4.31371">
        <ele>366.88</ele>
        <time>2021-03-04T12:45:17Z</time>
      </trkpt>
      <trkpt lat="47.56731" lon="4.31412">
        <ele>365.44</ele>
        <time>2021-03-04T12:45:33Z</time>
      </trkpt>
      <trkpt lat="47.56824" lon="4.31445">
        <ele>358.23</ele>
        <time>2021-03-04T12:45:46Z</time>
      </trkpt>
      <trkpt lat="47.5683" lon="4.31449">
        <ele>357.75</ele>
        <time>2021-03-04T12:45:47Z</time>
      </trkpt>
      <trkpt lat="47.56848" lon="4.3146">
        <ele>355.83</ele>
        <time>2021-03-04T12:45:50Z</time>
      </trkpt>
      <trkpt lat="47.5686" lon="4.31468">
        <ele>354.86</ele>
        <time>2021-03-04T12:45:52Z</time>
      </trkpt>
      <trkpt lat="47.56867" lon="4.31471">
        <ele>354.38</ele>
        <time>2021-03-04T12:45:53Z</time>
      </trkpt>
      <trkpt lat="47.56958" lon="4.31511">
        <ele>346.69</ele>
        <time>2021-03-04T12:46:04Z</time>
      </trkpt>
      <trkpt lat="47.5703" lon="4.31554">
        <ele>344.29</ele>
        <time>2021-03-04T12:46:13Z</time>
      </trkpt>
      <trkpt lat="47.57042" lon="4.31564">
        <ele>344.29</ele>
        <time>2021-03-04T12:46:15Z</time>
      </trkpt>
      <trkpt lat="47.57049" lon="4.31568">
        <ele>344.29</ele>
        <time>2021-03-04T12:46:16Z</time>
      </trkpt>
      <trkpt lat="47.57055" lon="4.3157">
        <ele>344.29</ele>
        <time>2021-03-04T12:46:17Z</time>
      </trkpt>
      <trkpt lat="47.57149" lon="4.31629">
        <ele>342.37</ele>
        <time>2021-03-04T12:46:32Z</time>
      </trkpt>
      <trkpt lat="47.57207" lon="4.31678">
        <ele>345.25</ele>
        <time>2021-03-04T12:46:45Z</time>
      </trkpt>
      <trkpt lat="47.57276" lon="4.31748">
        <ele>347.65</ele>
        <time>2021-03-04T12:47:02Z</time>
      </trkpt>
      <trkpt lat="47.5728" lon="4.31752">
        <ele>347.65</ele>
        <time>2021-03-04T12:47:03Z</time>
      </trkpt>
      <trkpt lat="47.57285" lon="4.31756">
        <ele>347.65</ele>
        <time>2021-03-04T12:47:04Z</time>
      </trkpt>
      <trkpt lat="47.57331" lon="4.31791">
        <ele>348.13</ele>
        <time>2021-03-04T12:47:14Z</time>
      </trkpt>
      <trkpt lat="47.57393" lon="4.31817">
        <ele>350.06</ele>
        <time>2021-03-04T12:47:27Z</time>
      </trkpt>
      <trkpt lat="47.57473" lon="4.31854">
        <ele>347.17</ele>
        <time>2021-03-04T12:47:42Z</time>
      </trkpt>
      <trkpt lat="47.5755" lon="4.31919">
        <ele>347.65</ele>
        <time>2021-03-04T12:47:59Z</time>
      </trkpt>
      <trkpt lat="47.57623" lon="4.32003">
        <ele>348.13</ele>
        <time>2021-03-04T12:48:18Z</time>
      </trkpt>
      <trkpt lat="47.57707" lon="4.32082">
        <ele>348.62</ele>
        <time>2021-03-04T12:48:39Z</time>
      </trkpt>
      <trkpt lat="47.57727" lon="4.32101">
        <ele>349.58</ele>
        <time>2021-03-04T12:48:44Z</time>
      </trkpt>
      <trkpt lat="47.57731" lon="4.32105">
        <ele>349.58</ele>
        <time>2021-03-04T12:48:45Z</time>
      </trkpt>
      <trkpt lat="47.57758" lon="4.32134">
        <ele>349.58</ele>
        <time>2021-03-04T12:48:52Z</time>
      </trkpt>
      <trkpt lat="47.57761" lon="4.32139">
        <ele>349.58</ele>
        <time>2021-03-04T12:48:53Z</time>
      </trkpt>
      <trkpt lat="47.57764" lon="4.32144">
        <ele>349.1</ele>
        <time>2021-03-04T12:48:54Z</time>
      </trkpt>
      <trkpt lat="47.57767" lon="4.3215">
        <ele>349.1</ele>
        <time>2021-03-04T12:48:55Z</time>
      </trkpt>
      <trkpt lat="47.57768" lon="4.32157">
        <ele>348.62</ele>
        <time>2021-03-04T12:48:56Z</time>
      </trkpt>
      <trkpt lat="47.57771" lon="4.32163">
        <ele>348.13</ele>
        <time>2021-03-04T12:48:57Z</time>
      </trkpt>
      <trkpt lat="47.57773" lon="4.3217">
        <ele>347.65</ele>
        <time>2021-03-04T12:48:58Z</time>
      </trkpt>
      <trkpt lat="47.57777" lon="4.32176">
        <ele>347.17</ele>
        <time>2021-03-04T12:48:59Z</time>
      </trkpt>
      <trkpt lat="47.57781" lon="4.32182">
        <ele>347.17</ele>
        <time>2021-03-04T12:49:00Z</time>
      </trkpt>
      <trkpt lat="47.57785" lon="4.32188">
        <ele>346.69</ele>
        <time>2021-03-04T12:49:01Z</time>
      </trkpt>
      <trkpt lat="47.57815" lon="4.32223">
        <ele>344.77</ele>
        <time>2021-03-04T12:49:07Z</time>
      </trkpt>
      <trkpt lat="47.57855" lon="4.32247">
        <ele>341.89</ele>
        <time>2021-03-04T12:49:14Z</time>
      </trkpt>
      <trkpt lat="47.57925" lon="4.32279">
        <ele>336.6</ele>
        <time>2021-03-04T12:49:23Z</time>
      </trkpt>
      <trkpt lat="47.57942" lon="4.32278">
        <ele>335.64</ele>
        <time>2021-03-04T12:49:25Z</time>
      </trkpt>
      <trkpt lat="47.57972" lon="4.32269">
        <ele>333.71</ele>
        <time>2021-03-04T12:49:29Z</time>
      </trkpt>
      <trkpt lat="47.57978" lon="4.32265">
        <ele>333.23</ele>
        <time>2021-03-04T12:49:30Z</time>
      </trkpt>
      <trkpt lat="47.57985" lon="4.32261">
        <ele>332.75</ele>
        <time>2021-03-04T12:49:31Z</time>
      </trkpt>
      <trkpt lat="47.57992" lon="4.32258">
        <ele>331.79</ele>
        <time>2021-03-04T12:49:32Z</time>
      </trkpt>
      <trkpt lat="47.57999" lon="4.32257">
        <ele>331.79</ele>
        <time>2021-03-04T12:49:33Z</time>
      </trkpt>
      <trkpt lat="47.58006" lon="4.32258">
        <ele>331.31</ele>
        <time>2021-03-04T12:49:34Z</time>
      </trkpt>
      <trkpt lat="47.58013" lon="4.32261">
        <ele>331.31</ele>
        <time>2021-03-04T12:49:35Z</time>
      </trkpt>
      <trkpt lat="47.5802" lon="4.32265">
        <ele>330.83</ele>
        <time>2021-03-04T12:49:36Z</time>
      </trkpt>
      <trkpt lat="47.58026" lon="4.32272">
        <ele>331.31</ele>
        <time>2021-03-04T12:49:37Z</time>
      </trkpt>
      <trkpt lat="47.58032" lon="4.32279">
        <ele>331.31</ele>
        <time>2021-03-04T12:49:38Z</time>
      </trkpt>
      <trkpt lat="47.58086" lon="4.3235">
        <ele>328.91</ele>
        <time>2021-03-04T12:49:48Z</time>
      </trkpt>
      <trkpt lat="47.58112" lon="4.32374">
        <ele>324.58</ele>
        <time>2021-03-04T12:49:53Z</time>
      </trkpt>
      <trkpt lat="47.58119" lon="4.32377">
        <ele>323.62</ele>
        <time>2021-03-04T12:49:54Z</time>
      </trkpt>
      <trkpt lat="47.58127" lon="4.32379">
        <ele>322.66</ele>
        <time>2021-03-04T12:49:55Z</time>
      </trkpt>
      <trkpt lat="47.58134" lon="4.32379">
        <ele>321.7</ele>
        <time>2021-03-04T12:49:56Z</time>
      </trkpt>
      <trkpt lat="47.58142" lon="4.32379">
        <ele>320.74</ele>
        <time>2021-03-04T12:49:57Z</time>
      </trkpt>
      <trkpt lat="47.58252" lon="4.32356">
        <ele>313.53</ele>
        <time>2021-03-04T12:50:11Z</time>
      </trkpt>
      <trkpt lat="47.58364" lon="4.32335">
        <ele>307.28</ele>
        <time>2021-03-04T12:50:24Z</time>
      </trkpt>
      <trkpt lat="47.58472" lon="4.32329">
        <ele>300.55</ele>
        <time>2021-03-04T12:50:38Z</time>
      </trkpt>
      <trkpt lat="47.58583" lon="4.32347">
        <ele>298.63</ele>
        <time>2021-03-04T12:50:56Z</time>
      </trkpt>
      <trkpt lat="47.58602" lon="4.3235">
        <ele>299.11</ele>
        <time>2021-03-04T12:51:00Z</time>
      </trkpt>
      <trkpt lat="47.58675" lon="4.32385">
        <ele>301.99</ele>
        <time>2021-03-04T12:51:18Z</time>
      </trkpt>
      <trkpt lat="47.58743" lon="4.32412">
        <ele>303.43</ele>
        <time>2021-03-04T12:51:35Z</time>
      </trkpt>
      <trkpt lat="47.58825" lon="4.32433">
        <ele>305.84</ele>
        <time>2021-03-04T12:51:56Z</time>
      </trkpt>
      <trkpt lat="47.58886" lon="4.32447">
        <ele>309.2</ele>
        <time>2021-03-04T12:52:14Z</time>
      </trkpt>
      <trkpt lat="47.58932" lon="4.32438">
        <ele>310.16</ele>
        <time>2021-03-04T12:52:26Z</time>
      </trkpt>
      <trkpt lat="47.58989" lon="4.3242">
        <ele>308.24</ele>
        <time>2021-03-04T12:52:36Z</time>
      </trkpt>
      <trkpt lat="47.58995" lon="4.32415">
        <ele>307.76</ele>
        <time>2021-03-04T12:52:37Z</time>
      </trkpt>
      <trkpt lat="47.59" lon="4.3241">
        <ele>307.76</ele>
        <time>2021-03-04T12:52:38Z</time>
      </trkpt>
      <trkpt lat="47.59006" lon="4.32404">
        <ele>307.28</ele>
        <time>2021-03-04T12:52:39Z</time>
      </trkpt>
      <trkpt lat="47.59012" lon="4.324">
        <ele>306.8</ele>
        <time>2021-03-04T12:52:40Z</time>
      </trkpt>
      <trkpt lat="47.59019" lon="4.32396">
        <ele>306.32</ele>
        <time>2021-03-04T12:52:41Z</time>
      </trkpt>
      <trkpt lat="47.59025" lon="4.32394">
        <ele>305.84</ele>
        <time>2021-03-04T12:52:42Z</time>
      </trkpt>
      <trkpt lat="47.59032" lon="4.32393">
        <ele>304.88</ele>
        <time>2021-03-04T12:52:43Z</time>
      </trkpt>
      <trkpt lat="47.59039" lon="4.32393">
        <ele>304.39</ele>
        <time>2021-03-04T12:52:44Z</time>
      </trkpt>
      <trkpt lat="47.59104" lon="4.32385">
        <ele>301.03</ele>
        <time>2021-03-04T12:52:53Z</time>
      </trkpt>
      <trkpt lat="47.59197" lon="4.32372">
        <ele>299.11</ele>
        <time>2021-03-04T12:53:05Z</time>
      </trkpt>
      <trkpt lat="47.59265" lon="4.32382">
        <ele>296.22</ele>
        <time>2021-03-04T12:53:14Z</time>
      </trkpt>
      <trkpt lat="47.59271" lon="4.32385">
        <ele>296.22</ele>
        <time>2021-03-04T12:53:15Z</time>
      </trkpt>
      <trkpt lat="47.59277" lon="4.32389">
        <ele>296.22</ele>
        <time>2021-03-04T12:53:16Z</time>
      </trkpt>
      <trkpt lat="47.59368" lon="4.32457">
        <ele>295.74</ele>
        <time>2021-03-04T12:53:31Z</time>
      </trkpt>
      <trkpt lat="47.59415" lon="4.32487">
        <ele>290.46</ele>
        <time>2021-03-04T12:53:37Z</time>
      </trkpt>
      <trkpt lat="47.5942" lon="4.32493">
        <ele>289.97</ele>
        <time>2021-03-04T12:53:38Z</time>
      </trkpt>
      <trkpt lat="47.59425" lon="4.325">
        <ele>289.49</ele>
        <time>2021-03-04T12:53:39Z</time>
      </trkpt>
      <trkpt lat="47.59429" lon="4.32505">
        <ele>289.01</ele>
        <time>2021-03-04T12:53:40Z</time>
      </trkpt>
      <trkpt lat="47.59432" lon="4.32509">
        <ele>288.53</ele>
        <time>2021-03-04T12:53:41Z</time>
      </trkpt>
      <trkpt lat="47.59436" lon="4.32511">
        <ele>288.05</ele>
        <time>2021-03-04T12:53:42Z</time>
      </trkpt>
      <trkpt lat="47.5944" lon="4.32511">
        <ele>287.57</ele>
        <time>2021-03-04T12:53:43Z</time>
      </trkpt>
      <trkpt lat="47.59445" lon="4.3251">
        <ele>286.13</ele>
        <time>2021-03-04T12:53:44Z</time>
      </trkpt>
      <trkpt lat="47.59539" lon="4.32486">
        <ele>268.35</ele>
        <time>2021-03-04T12:54:00Z</time>
      </trkpt>
      <trkpt lat="47.59563" lon="4.32481">
        <ele>265.46</ele>
        <time>2021-03-04T12:54:05Z</time>
      </trkpt>
      <trkpt lat="47.59617" lon="4.32505">
        <ele>262.58</ele>
        <time>2021-03-04T12:54:19Z</time>
      </trkpt>
      <trkpt lat="47.59652" lon="4.32522">
        <ele>259.69</ele>
        <time>2021-03-04T12:54:30Z</time>
      </trkpt>
      <trkpt lat="47.59657" lon="4.32521">
        <ele>259.69</ele>
        <time>2021-03-04T12:54:31Z</time>
      </trkpt>
      <trkpt lat="47.59661" lon="4.32518">
        <ele>259.21</ele>
        <time>2021-03-04T12:54:32Z</time>
      </trkpt>
      <trkpt lat="47.59666" lon="4.32514">
        <ele>258.73</ele>
        <time>2021-03-04T12:54:33Z</time>
      </trkpt>
      <trkpt lat="47.59671" lon="4.3251">
        <ele>258.25</ele>
        <time>2021-03-04T12:54:34Z</time>
      </trkpt>
      <trkpt lat="47.59677" lon="4.32505">
        <ele>257.77</ele>
        <time>2021-03-04T12:54:35Z</time>
      </trkpt>
      <trkpt lat="47.59682" lon="4.32502">
        <ele>257.29</ele>
        <time>2021-03-04T12:54:36Z</time>
      </trkpt>
      <trkpt lat="47.59688" lon="4.32501">
        <ele>256.81</ele>
        <time>2021-03-04T12:54:37Z</time>
      </trkpt>
      <trkpt lat="47.59694" lon="4.32502">
        <ele>256.33</ele>
        <time>2021-03-04T12:54:38Z</time>
      </trkpt>
      <trkpt lat="47.59699" lon="4.32506">
        <ele>255.85</ele>
        <time>2021-03-04T12:54:39Z</time>
      </trkpt>
      <trkpt lat="47.59703" lon="4.32511">
        <ele>255.37</ele>
        <time>2021-03-04T12:54:40Z</time>
      </trkpt>
      <trkpt lat="47.59706" lon="4.32517">
        <ele>254.89</ele>
        <time>2021-03-04T12:54:41Z</time>
      </trkpt>
      <trkpt lat="47.59708" lon="4.32523">
        <ele>254.41</ele>
        <time>2021-03-04T12:54:42Z</time>
      </trkpt>
      <trkpt lat="47.5971" lon="4.32527">
        <ele>253.93</ele>
        <time>2021-03-04T12:54:43Z</time>
      </trkpt>
      <trkpt lat="47.59712" lon="4.32529">
        <ele>253.93</ele>
        <time>2021-03-04T12:54:44Z</time>
      </trkpt>
      <trkpt lat="47.59714" lon="4.3253">
        <ele>253.44</ele>
        <time>2021-03-04T12:54:45Z</time>
      </trkpt>
      <trkpt lat="47.59718" lon="4.32528">
        <ele>253.44</ele>
        <time>2021-03-04T12:54:46Z</time>
      </trkpt>
      <trkpt lat="47.59721" lon="4.32525">
        <ele>252.96</ele>
        <time>2021-03-04T12:54:47Z</time>
      </trkpt>
      <trkpt lat="47.59724" lon="4.32521">
        <ele>252.48</ele>
        <time>2021-03-04T12:54:48Z</time>
      </trkpt>
      <trkpt lat="47.59727" lon="4.32516">
        <ele>252</ele>
        <time>2021-03-04T12:54:49Z</time>
      </trkpt>
      <trkpt lat="47.5973" lon="4.32511">
        <ele>251.52</ele>
        <time>2021-03-04T12:54:50Z</time>
      </trkpt>
      <trkpt lat="47.59733" lon="4.32506">
        <ele>251.52</ele>
        <time>2021-03-04T12:54:51Z</time>
      </trkpt>
      <trkpt lat="47.5977" lon="4.32455">
        <ele>247.2</ele>
        <time>2021-03-04T12:55:00Z</time>
      </trkpt>
      <trkpt lat="47.59786" lon="4.3244">
        <ele>245.75</ele>
        <time>2021-03-04T12:55:03Z</time>
      </trkpt>
      <trkpt lat="47.5983" lon="4.32401">
        <ele>241.91</ele>
        <time>2021-03-04T12:55:11Z</time>
      </trkpt>
      <trkpt lat="47.59879" lon="4.32331">
        <ele>238.54</ele>
        <time>2021-03-04T12:55:24Z</time>
      </trkpt>
      <trkpt lat="47.59921" lon="4.32295">
        <ele>238.06</ele>
        <time>2021-03-04T12:55:33Z</time>
      </trkpt>
      <trkpt lat="47.59925" lon="4.32289">
        <ele>238.06</ele>
        <time>2021-03-04T12:55:34Z</time>
      </trkpt>
      <trkpt lat="47.59927" lon="4.32283">
        <ele>238.06</ele>
        <time>2021-03-04T12:55:35Z</time>
      </trkpt>
      <trkpt lat="47.5993" lon="4.32277">
        <ele>238.06</ele>
        <time>2021-03-04T12:55:36Z</time>
      </trkpt>
      <trkpt lat="47.59931" lon="4.32271">
        <ele>238.06</ele>
        <time>2021-03-04T12:55:37Z</time>
      </trkpt>
      <trkpt lat="47.59931" lon="4.32264">
        <ele>238.54</ele>
        <time>2021-03-04T12:55:38Z</time>
      </trkpt>
      <trkpt lat="47.59931" lon="4.32258">
        <ele>238.54</ele>
        <time>2021-03-04T12:55:39Z</time>
      </trkpt>
      <trkpt lat="47.59931" lon="4.32252">
        <ele>238.54</ele>
        <time>2021-03-04T12:55:40Z</time>
      </trkpt>
      <trkpt lat="47.5993" lon="4.32246">
        <ele>238.54</ele>
        <time>2021-03-04T12:55:41Z</time>
      </trkpt>
      <trkpt lat="47.59945" lon="4.32205">
        <ele>238.06</ele>
        <time>2021-03-04T12:55:50Z</time>
      </trkpt>
      <trkpt lat="47.59984" lon="4.32115">
        <ele>238.54</ele>
        <time>2021-03-04T12:56:05Z</time>
      </trkpt>
      <trkpt lat="47.59997" lon="4.32088">
        <ele>239.02</ele>
        <time>2021-03-04T12:56:10Z</time>
      </trkpt>
      <trkpt lat="47.60038" lon="4.32021">
        <ele>241.91</ele>
        <time>2021-03-04T12:56:26Z</time>
      </trkpt>
      <trkpt lat="47.60048" lon="4.3201">
        <ele>241.43</ele>
        <time>2021-03-04T12:56:29Z</time>
      </trkpt>
      <trkpt lat="47.60056" lon="4.32004">
        <ele>241.43</ele>
        <time>2021-03-04T12:56:31Z</time>
      </trkpt>
      <trkpt lat="47.60061" lon="4.32001">
        <ele>241.43</ele>
        <time>2021-03-04T12:56:32Z</time>
      </trkpt>
      <trkpt lat="47.60128" lon="4.31967">
        <ele>242.39</ele>
        <time>2021-03-04T12:56:47Z</time>
      </trkpt>
      <trkpt lat="47.60209" lon="4.31924">
        <ele>241.43</ele>
        <time>2021-03-04T12:57:01Z</time>
      </trkpt>
      <trkpt lat="47.60296" lon="4.31903">
        <ele>239.51</ele>
        <time>2021-03-04T12:57:15Z</time>
      </trkpt>
      <trkpt lat="47.60384" lon="4.31884">
        <ele>235.66</ele>
        <time>2021-03-04T12:57:28Z</time>
      </trkpt>
      <trkpt lat="47.60419" lon="4.3186">
        <ele>235.66</ele>
        <time>2021-03-04T12:57:34Z</time>
      </trkpt>
      <trkpt lat="47.60424" lon="4.31855">
        <ele>235.66</ele>
        <time>2021-03-04T12:57:35Z</time>
      </trkpt>
      <trkpt lat="47.60476" lon="4.31802">
        <ele>236.62</ele>
        <time>2021-03-04T12:57:45Z</time>
      </trkpt>
      <trkpt lat="47.6048" lon="4.31796">
        <ele>237.1</ele>
        <time>2021-03-04T12:57:46Z</time>
      </trkpt>
      <trkpt lat="47.6049" lon="4.31787">
        <ele>238.06</ele>
        <time>2021-03-04T12:57:48Z</time>
      </trkpt>
      <trkpt lat="47.60495" lon="4.31783">
        <ele>238.54</ele>
        <time>2021-03-04T12:57:49Z</time>
      </trkpt>
      <trkpt lat="47.60595" lon="4.3173">
        <ele>236.62</ele>
        <time>2021-03-04T12:58:06Z</time>
      </trkpt>
      <trkpt lat="47.60638" lon="4.31713">
        <ele>235.18</ele>
        <time>2021-03-04T12:58:14Z</time>
      </trkpt>
      <trkpt lat="47.60643" lon="4.3171">
        <ele>235.18</ele>
        <time>2021-03-04T12:58:15Z</time>
      </trkpt>
      <trkpt lat="47.60648" lon="4.31707">
        <ele>235.18</ele>
        <time>2021-03-04T12:58:16Z</time>
      </trkpt>
      <trkpt lat="47.60652" lon="4.31705">
        <ele>234.7</ele>
        <time>2021-03-04T12:58:17Z</time>
      </trkpt>
      <trkpt lat="47.60657" lon="4.31703">
        <ele>234.7</ele>
        <time>2021-03-04T12:58:18Z</time>
      </trkpt>
      <trkpt lat="47.60661" lon="4.31702">
        <ele>234.22</ele>
        <time>2021-03-04T12:58:19Z</time>
      </trkpt>
      <trkpt lat="47.60665" lon="4.31702">
        <ele>234.22</ele>
        <time>2021-03-04T12:58:20Z</time>
      </trkpt>
      <trkpt lat="47.60669" lon="4.31702">
        <ele>234.22</ele>
        <time>2021-03-04T12:58:21Z</time>
      </trkpt>
      <trkpt lat="47.60673" lon="4.31701">
        <ele>233.74</ele>
        <time>2021-03-04T12:58:22Z</time>
      </trkpt>
      <trkpt lat="47.60677" lon="4.317">
        <ele>234.22</ele>
        <time>2021-03-04T12:58:23Z</time>
      </trkpt>
      <trkpt lat="47.60695" lon="4.31694">
        <ele>233.74</ele>
        <time>2021-03-04T12:58:27Z</time>
      </trkpt>
      <trkpt lat="47.60754" lon="4.31681">
        <ele>233.26</ele>
        <time>2021-03-04T12:58:39Z</time>
      </trkpt>
      <trkpt lat="47.60801" lon="4.3167">
        <ele>232.3</ele>
        <time>2021-03-04T12:58:47Z</time>
      </trkpt>
      <trkpt lat="47.60806" lon="4.31668">
        <ele>232.3</ele>
        <time>2021-03-04T12:58:48Z</time>
      </trkpt>
      <trkpt lat="47.60811" lon="4.31665">
        <ele>231.81</ele>
        <time>2021-03-04T12:58:49Z</time>
      </trkpt>
      <trkpt lat="47.60828" lon="4.31654">
        <ele>231.81</ele>
        <time>2021-03-04T12:58:53Z</time>
      </trkpt>
      <trkpt lat="47.60832" lon="4.31651">
        <ele>231.81</ele>
        <time>2021-03-04T12:58:54Z</time>
      </trkpt>
      <trkpt lat="47.6089" lon="4.31597">
        <ele>229.89</ele>
        <time>2021-03-04T12:59:07Z</time>
      </trkpt>
      <trkpt lat="47.6091" lon="4.31566">
        <ele>228.93</ele>
        <time>2021-03-04T12:59:12Z</time>
      </trkpt>
      <trkpt lat="47.60923" lon="4.31539">
        <ele>227.97</ele>
        <time>2021-03-04T12:59:16Z</time>
      </trkpt>
      <trkpt lat="47.60951" lon="4.3147">
        <ele>227.01</ele>
        <time>2021-03-04T12:59:29Z</time>
      </trkpt>
      <trkpt lat="47.6101" lon="4.31425">
        <ele>227.01</ele>
        <time>2021-03-04T12:59:45Z</time>
      </trkpt>
      <trkpt lat="47.61095" lon="4.31369">
        <ele>228.45</ele>
        <time>2021-03-04T13:00:04Z</time>
      </trkpt>
      <trkpt lat="47.61145" lon="4.31307">
        <ele>227.97</ele>
        <time>2021-03-04T13:00:19Z</time>
      </trkpt>
      <trkpt lat="47.61199" lon="4.31213">
        <ele>227.49</ele>
        <time>2021-03-04T13:00:37Z</time>
      </trkpt>
      <trkpt lat="47.61224" lon="4.31193">
        <ele>229.89</ele>
        <time>2021-03-04T13:00:49Z</time>
      </trkpt>
      <trkpt lat="47.61246" lon="4.31197">
        <ele>232.3</ele>
        <time>2021-03-04T13:01:06Z</time>
      </trkpt>
      <trkpt lat="47.61256" lon="4.31184">
        <ele>233.26</ele>
        <time>2021-03-04T13:01:15Z</time>
      </trkpt>
      <trkpt lat="47.61256" lon="4.31182">
        <ele>233.26</ele>
        <time>2021-03-04T13:01:16Z</time>
      </trkpt>
      <trkpt lat="47.61248" lon="4.31156">
        <ele>235.18</ele>
        <time>2021-03-04T13:01:30Z</time>
      </trkpt>
      <trkpt lat="47.61247" lon="4.31155">
        <ele>235.66</ele>
        <time>2021-03-04T13:01:31Z</time>
      </trkpt>
      <trkpt lat="47.61244" lon="4.31152">
        <ele>238.54</ele>
        <time>2021-03-04T13:01:35Z</time>
      </trkpt>
      <trkpt lat="47.61243" lon="4.3115">
        <ele>239.02</ele>
        <time>2021-03-04T13:01:36Z</time>
      </trkpt>
      <trkpt lat="47.61243" lon="4.31148">
        <ele>239.02</ele>
        <time>2021-03-04T13:01:37Z</time>
      </trkpt>
      <trkpt lat="47.61231" lon="4.31124">
        <ele>244.79</ele>
        <time>2021-03-04T13:01:51Z</time>
      </trkpt>
      <trkpt lat="47.6123" lon="4.31123">
        <ele>245.75</ele>
        <time>2021-03-04T13:01:52Z</time>
      </trkpt>
      <trkpt lat="47.6123" lon="4.31122">
        <ele>246.23</ele>
        <time>2021-03-04T13:01:53Z</time>
      </trkpt>
      <trkpt lat="47.61229" lon="4.31119">
        <ele>246.23</ele>
        <time>2021-03-04T13:01:54Z</time>
      </trkpt>
      <trkpt lat="47.61228" lon="4.31117">
        <ele>246.23</ele>
        <time>2021-03-04T13:01:55Z</time>
      </trkpt>
      <trkpt lat="47.61227" lon="4.31115">
        <ele>246.72</ele>
        <time>2021-03-04T13:01:56Z</time>
      </trkpt>
      <trkpt lat="47.61222" lon="4.31103">
        <ele>246.72</ele>
        <time>2021-03-04T13:02:02Z</time>
      </trkpt>
      <trkpt lat="47.61221" lon="4.31097">
        <ele>245.27</ele>
        <time>2021-03-04T13:02:04Z</time>
      </trkpt>
      <trkpt lat="47.61221" lon="4.31094">
        <ele>245.27</ele>
        <time>2021-03-04T13:02:05Z</time>
      </trkpt>
      <trkpt lat="47.61221" lon="4.31092">
        <ele>245.27</ele>
        <time>2021-03-04T13:02:06Z</time>
      </trkpt>
      <trkpt lat="47.61232" lon="4.31073">
        <ele>247.2</ele>
        <time>2021-03-04T13:02:21Z</time>
      </trkpt>
      <trkpt lat="47.6124" lon="4.3106">
        <ele>248.16</ele>
        <time>2021-03-04T13:02:31Z</time>
      </trkpt>
      <trkpt lat="47.61241" lon="4.3106">
        <ele>248.64</ele>
        <time>2021-03-04T13:02:32Z</time>
      </trkpt>
      <trkpt lat="47.61242" lon="4.3106">
        <ele>248.64</ele>
        <time>2021-03-04T13:02:33Z</time>
      </trkpt>
      <trkpt lat="47.61242" lon="4.3106">
        <ele>249.12</ele>
        <time>2021-03-04T13:02:34Z</time>
      </trkpt>
      <trkpt lat="47.61243" lon="4.3106">
        <ele>249.6</ele>
        <time>2021-03-04T13:02:35Z</time>
      </trkpt>
      <trkpt lat="47.61244" lon="4.3106">
        <ele>250.08</ele>
        <time>2021-03-04T13:02:36Z</time>
      </trkpt>
      <trkpt lat="47.61245" lon="4.3106">
        <ele>250.08</ele>
        <time>2021-03-04T13:02:37Z</time>
      </trkpt>
      <trkpt lat="47.61265" lon="4.31056">
        <ele>250.56</ele>
        <time>2021-03-04T13:02:53Z</time>
      </trkpt>
      <trkpt lat="47.61284" lon="4.31041">
        <ele>253.44</ele>
        <time>2021-03-04T13:03:11Z</time>
      </trkpt>
      <trkpt lat="47.61285" lon="4.3104">
        <ele>253.44</ele>
        <time>2021-03-04T13:03:12Z</time>
      </trkpt>
      <trkpt lat="47.61286" lon="4.31038">
        <ele>253.93</ele>
        <time>2021-03-04T13:03:13Z</time>
      </trkpt>
      <trkpt lat="47.61286" lon="4.31037">
        <ele>254.41</ele>
        <time>2021-03-04T13:03:14Z</time>
      </trkpt>
      <trkpt lat="47.61287" lon="4.31036">
        <ele>254.41</ele>
        <time>2021-03-04T13:03:15Z</time>
      </trkpt>
      <trkpt lat="47.61288" lon="4.31036">
        <ele>254.89</ele>
        <time>2021-03-04T13:03:16Z</time>
      </trkpt>
      <trkpt lat="47.61289" lon="4.31035">
        <ele>254.89</ele>
        <time>2021-03-04T13:03:17Z</time>
      </trkpt>
      <trkpt lat="47.61298" lon="4.31029">
        <ele>257.29</ele>
        <time>2021-03-04T13:03:26Z</time>
      </trkpt>
      <trkpt lat="47.61316" lon="4.31017">
        <ele>258.73</ele>
        <time>2021-03-04T13:03:41Z</time>
      </trkpt>
      <trkpt lat="47.61338" lon="4.31003">
        <ele>259.69</ele>
        <time>2021-03-04T13:03:58Z</time>
      </trkpt>
      <trkpt lat="47.61363" lon="4.30982">
        <ele>261.62</ele>
        <time>2021-03-04T13:04:18Z</time>
      </trkpt>
      <trkpt lat="47.61381" lon="4.30959">
        <ele>265.94</ele>
        <time>2021-03-04T13:04:37Z</time>
      </trkpt>
      <trkpt lat="47.61386" lon="4.30955">
        <ele>267.38</ele>
        <time>2021-03-04T13:04:42Z</time>
      </trkpt>
      <trkpt lat="47.614" lon="4.30959">
        <ele>274.59</ele>
        <time>2021-03-04T13:04:58Z</time>
      </trkpt>
      <trkpt lat="47.61413" lon="4.30967">
        <ele>284.21</ele>
        <time>2021-03-04T13:05:11Z</time>
      </trkpt>
      <trkpt lat="47.61432" lon="4.3098">
        <ele>289.01</ele>
        <time>2021-03-04T13:05:27Z</time>
      </trkpt>
      <trkpt lat="47.61446" lon="4.30993">
        <ele>292.38</ele>
        <time>2021-03-04T13:05:42Z</time>
      </trkpt>
      <trkpt lat="47.6146" lon="4.31006">
        <ele>298.15</ele>
        <time>2021-03-04T13:05:56Z</time>
      </trkpt>
      <trkpt lat="47.61481" lon="4.31019">
        <ele>300.07</ele>
        <time>2021-03-04T13:06:12Z</time>
      </trkpt>
      <trkpt lat="47.61502" lon="4.31024">
        <ele>300.07</ele>
        <time>2021-03-04T13:06:27Z</time>
      </trkpt>
      <trkpt lat="47.61527" lon="4.31025">
        <ele>302.95</ele>
        <time>2021-03-04T13:06:45Z</time>
      </trkpt>
      <trkpt lat="47.61543" lon="4.31014">
        <ele>305.36</ele>
        <time>2021-03-04T13:06:58Z</time>
      </trkpt>
      <trkpt lat="47.61558" lon="4.30999">
        <ele>309.68</ele>
        <time>2021-03-04T13:07:12Z</time>
      </trkpt>
      <trkpt lat="47.61564" lon="4.30997">
        <ele>310.16</ele>
        <time>2021-03-04T13:07:16Z</time>
      </trkpt>
      <trkpt lat="47.61578" lon="4.30995">
        <ele>313.53</ele>
        <time>2021-03-04T13:07:29Z</time>
      </trkpt>
      <trkpt lat="47.6159" lon="4.31">
        <ele>316.89</ele>
        <time>2021-03-04T13:07:40Z</time>
      </trkpt>
      <trkpt lat="47.61611" lon="4.31016">
        <ele>318.33</ele>
        <time>2021-03-04T13:07:58Z</time>
      </trkpt>
      <trkpt lat="47.61622" lon="4.31019">
        <ele>321.22</ele>
        <time>2021-03-04T13:08:06Z</time>
      </trkpt>
      <trkpt lat="47.61641" lon="4.31018">
        <ele>323.62</ele>
        <time>2021-03-04T13:08:22Z</time>
      </trkpt>
      <trkpt lat="47.61656" lon="4.31016">
        <ele>325.06</ele>
        <time>2021-03-04T13:08:36Z</time>
      </trkpt>
      <trkpt lat="47.61674" lon="4.31013">
        <ele>326.99</ele>
        <time>2021-03-04T13:08:50Z</time>
      </trkpt>
      <trkpt lat="47.61689" lon="4.31011">
        <ele>327.47</ele>
        <time>2021-03-04T13:09:00Z</time>
      </trkpt>
      <trkpt lat="47.61706" lon="4.31008">
        <ele>335.64</ele>
        <time>2021-03-04T13:09:13Z</time>
      </trkpt>
      <trkpt lat="47.61725" lon="4.30992">
        <ele>339.48</ele>
        <time>2021-03-04T13:09:29Z</time>
      </trkpt>
      <trkpt lat="47.61734" lon="4.30978">
        <ele>341.41</ele>
        <time>2021-03-04T13:09:39Z</time>
      </trkpt>
      <trkpt lat="47.61742" lon="4.30975">
        <ele>340.92</ele>
        <time>2021-03-04T13:09:45Z</time>
      </trkpt>
      <trkpt lat="47.61756" lon="4.31005">
        <ele>351.98</ele>
        <time>2021-03-04T13:09:59Z</time>
      </trkpt>
      <trkpt lat="47.6179" lon="4.31032">
        <ele>353.42</ele>
        <time>2021-03-04T13:10:10Z</time>
      </trkpt>
      <trkpt lat="47.61836" lon="4.31025">
        <ele>344.29</ele>
        <time>2021-03-04T13:10:24Z</time>
      </trkpt>
      <trkpt lat="47.61855" lon="4.30989">
        <ele>338.52</ele>
        <time>2021-03-04T13:10:39Z</time>
      </trkpt>
      <trkpt lat="47.61858" lon="4.30986">
        <ele>337.56</ele>
        <time>2021-03-04T13:10:41Z</time>
      </trkpt>
      <trkpt lat="47.61864" lon="4.3099">
        <ele>337.56</ele>
        <time>2021-03-04T13:10:46Z</time>
      </trkpt>
      <trkpt lat="47.61868" lon="4.30995">
        <ele>338.04</ele>
        <time>2021-03-04T13:10:49Z</time>
      </trkpt>
      <trkpt lat="47.61885" lon="4.31008">
        <ele>340.44</ele>
        <time>2021-03-04T13:10:59Z</time>
      </trkpt>
      <trkpt lat="47.61897" lon="4.3102">
        <ele>344.29</ele>
        <time>2021-03-04T13:11:09Z</time>
      </trkpt>
      <trkpt lat="47.61901" lon="4.3103">
        <ele>347.65</ele>
        <time>2021-03-04T13:11:21Z</time>
      </trkpt>
      <trkpt lat="47.61905" lon="4.31024">
        <ele>344.29</ele>
        <time>2021-03-04T13:11:33Z</time>
      </trkpt>
      <trkpt lat="47.61899" lon="4.31009">
        <ele>341.41</ele>
        <time>2021-03-04T13:11:43Z</time>
      </trkpt>
      <trkpt lat="47.61894" lon="4.31004">
        <ele>341.41</ele>
        <time>2021-03-04T13:11:47Z</time>
      </trkpt>
      <trkpt lat="47.6189" lon="4.30997">
        <ele>341.89</ele>
        <time>2021-03-04T13:11:53Z</time>
      </trkpt>
      <trkpt lat="47.6189" lon="4.30991">
        <ele>342.85</ele>
        <time>2021-03-04T13:11:57Z</time>
      </trkpt>
      <trkpt lat="47.61859" lon="4.31001">
        <ele>338.04</ele>
        <time>2021-03-04T13:12:07Z</time>
      </trkpt>
      <trkpt lat="47.61852" lon="4.31011">
        <ele>336.6</ele>
        <time>2021-03-04T13:12:09Z</time>
      </trkpt>
      <trkpt lat="47.61828" lon="4.31025">
        <ele>333.71</ele>
        <time>2021-03-04T13:12:14Z</time>
      </trkpt>
      <trkpt lat="47.61805" lon="4.31028">
        <ele>331.79</ele>
        <time>2021-03-04T13:12:20Z</time>
      </trkpt>
      <trkpt lat="47.61804" lon="4.31053">
        <ele>327.95</ele>
        <time>2021-03-04T13:12:25Z</time>
      </trkpt>
      <trkpt lat="47.61844" lon="4.31123">
        <ele>326.99</ele>
        <time>2021-03-04T13:12:36Z</time>
      </trkpt>
      <trkpt lat="47.61891" lon="4.31227">
        <ele>326.99</ele>
        <time>2021-03-04T13:12:48Z</time>
      </trkpt>
      <trkpt lat="47.61949" lon="4.31314">
        <ele>317.85</ele>
        <time>2021-03-04T13:13:00Z</time>
      </trkpt>
      <trkpt lat="47.61976" lon="4.31356">
        <ele>309.68</ele>
        <time>2021-03-04T13:13:09Z</time>
      </trkpt>
      <trkpt lat="47.62001" lon="4.31398">
        <ele>312.09</ele>
        <time>2021-03-04T13:13:20Z</time>
      </trkpt>
      <trkpt lat="47.6201" lon="4.31413">
        <ele>311.6</ele>
        <time>2021-03-04T13:13:23Z</time>
      </trkpt>
      <trkpt lat="47.6202" lon="4.31429">
        <ele>310.16</ele>
        <time>2021-03-04T13:13:26Z</time>
      </trkpt>
      <trkpt lat="47.62047" lon="4.31465">
        <ele>308.72</ele>
        <time>2021-03-04T13:13:33Z</time>
      </trkpt>
      <trkpt lat="47.62061" lon="4.31478">
        <ele>307.76</ele>
        <time>2021-03-04T13:13:36Z</time>
      </trkpt>
      <trkpt lat="47.6212" lon="4.31526">
        <ele>300.55</ele>
        <time>2021-03-04T13:13:48Z</time>
      </trkpt>
      <trkpt lat="47.62166" lon="4.31565">
        <ele>293.82</ele>
        <time>2021-03-04T13:14:00Z</time>
      </trkpt>
      <trkpt lat="47.62198" lon="4.31596">
        <ele>288.53</ele>
        <time>2021-03-04T13:14:14Z</time>
      </trkpt>
      <trkpt lat="47.62235" lon="4.31616">
        <ele>281.8</ele>
        <time>2021-03-04T13:14:26Z</time>
      </trkpt>
      <trkpt lat="47.62283" lon="4.31647">
        <ele>271.71</ele>
        <time>2021-03-04T13:14:40Z</time>
      </trkpt>
      <trkpt lat="47.62297" lon="4.31653">
        <ele>268.83</ele>
        <time>2021-03-04T13:14:45Z</time>
      </trkpt>
      <trkpt lat="47.62314" lon="4.31637">
        <ele>269.31</ele>
        <time>2021-03-04T13:14:58Z</time>
      </trkpt>
      <trkpt lat="47.62321" lon="4.31623">
        <ele>273.15</ele>
        <time>2021-03-04T13:15:11Z</time>
      </trkpt>
      <trkpt lat="47.62326" lon="4.31615">
        <ele>277.48</ele>
        <time>2021-03-04T13:15:20Z</time>
      </trkpt>
      <trkpt lat="47.62341" lon="4.31605">
        <ele>283.73</ele>
        <time>2021-03-04T13:15:29Z</time>
      </trkpt>
      <trkpt lat="47.62369" lon="4.31586">
        <ele>292.38</ele>
        <time>2021-03-04T13:15:42Z</time>
      </trkpt>
      <trkpt lat="47.62379" lon="4.3158">
        <ele>288.05</ele>
        <time>2021-03-04T13:15:55Z</time>
      </trkpt>
      <trkpt lat="47.62381" lon="4.31573">
        <ele>289.49</ele>
        <time>2021-03-04T13:16:06Z</time>
      </trkpt>
      <trkpt lat="47.62391" lon="4.31567">
        <ele>287.09</ele>
        <time>2021-03-04T13:16:17Z</time>
      </trkpt>
      <trkpt lat="47.62393" lon="4.31565">
        <ele>287.09</ele>
        <time>2021-03-04T13:16:18Z</time>
      </trkpt>
      <trkpt lat="47.62415" lon="4.31551">
        <ele>285.65</ele>
        <time>2021-03-04T13:16:29Z</time>
      </trkpt>
      <trkpt lat="47.62437" lon="4.3153">
        <ele>289.01</ele>
        <time>2021-03-04T13:16:41Z</time>
      </trkpt>
      <trkpt lat="47.62439" lon="4.31529">
        <ele>289.49</ele>
        <time>2021-03-04T13:16:42Z</time>
      </trkpt>
      <trkpt lat="47.62448" lon="4.31509">
        <ele>285.65</ele>
        <time>2021-03-04T13:16:53Z</time>
      </trkpt>
      <trkpt lat="47.62452" lon="4.31497">
        <ele>285.17</ele>
        <time>2021-03-04T13:16:59Z</time>
      </trkpt>
      <trkpt lat="47.62466" lon="4.31483">
        <ele>284.21</ele>
        <time>2021-03-04T13:17:05Z</time>
      </trkpt>
      <trkpt lat="47.62471" lon="4.31478">
        <ele>285.17</ele>
        <time>2021-03-04T13:17:08Z</time>
      </trkpt>
      <trkpt lat="47.62488" lon="4.31461">
        <ele>289.49</ele>
        <time>2021-03-04T13:17:14Z</time>
      </trkpt>
      <trkpt lat="47.62512" lon="4.31447">
        <ele>294.78</ele>
        <time>2021-03-04T13:17:23Z</time>
      </trkpt>
      <trkpt lat="47.6254" lon="4.31422">
        <ele>287.57</ele>
        <time>2021-03-04T13:17:33Z</time>
      </trkpt>
      <trkpt lat="47.62565" lon="4.31409">
        <ele>289.49</ele>
        <time>2021-03-04T13:17:45Z</time>
      </trkpt>
      <trkpt lat="47.62572" lon="4.31405">
        <ele>290.46</ele>
        <time>2021-03-04T13:17:49Z</time>
      </trkpt>
      <trkpt lat="47.62582" lon="4.31396">
        <ele>291.42</ele>
        <time>2021-03-04T13:17:54Z</time>
      </trkpt>
      <trkpt lat="47.62595" lon="4.3138">
        <ele>293.82</ele>
        <time>2021-03-04T13:18:02Z</time>
      </trkpt>
      <trkpt lat="47.626" lon="4.31373">
        <ele>297.18</ele>
        <time>2021-03-04T13:18:06Z</time>
      </trkpt>
      <trkpt lat="47.6262" lon="4.31354">
        <ele>301.03</ele>
        <time>2021-03-04T13:18:18Z</time>
      </trkpt>
      <trkpt lat="47.62625" lon="4.31349">
        <ele>300.07</ele>
        <time>2021-03-04T13:18:20Z</time>
      </trkpt>
      <trkpt lat="47.62645" lon="4.31341">
        <ele>297.67</ele>
        <time>2021-03-04T13:18:28Z</time>
      </trkpt>
      <trkpt lat="47.62666" lon="4.3132">
        <ele>282.28</ele>
        <time>2021-03-04T13:18:41Z</time>
      </trkpt>
      <trkpt lat="47.62679" lon="4.31304">
        <ele>274.11</ele>
        <time>2021-03-04T13:18:56Z</time>
      </trkpt>
      <trkpt lat="47.62687" lon="4.31295">
        <ele>266.9</ele>
        <time>2021-03-04T13:19:08Z</time>
      </trkpt>
      <trkpt lat="47.62686" lon="4.31288">
        <ele>265.94</ele>
        <time>2021-03-04T13:19:18Z</time>
      </trkpt>
      <trkpt lat="47.62688" lon="4.31283">
        <ele>265.46</ele>
        <time>2021-03-04T13:19:30Z</time>
      </trkpt>
      <trkpt lat="47.62691" lon="4.31284">
        <ele>264.98</ele>
        <time>2021-03-04T13:19:32Z</time>
      </trkpt>
      <trkpt lat="47.62707" lon="4.3127">
        <ele>268.35</ele>
        <time>2021-03-04T13:19:44Z</time>
      </trkpt>
      <trkpt lat="47.62711" lon="4.31266">
        <ele>269.31</ele>
        <time>2021-03-04T13:19:47Z</time>
      </trkpt>
      <trkpt lat="47.62725" lon="4.31242">
        <ele>272.19</ele>
        <time>2021-03-04T13:19:55Z</time>
      </trkpt>
      <trkpt lat="47.62741" lon="4.31227">
        <ele>279.4</ele>
        <time>2021-03-04T13:20:05Z</time>
      </trkpt>
      <trkpt lat="47.62747" lon="4.3122">
        <ele>281.8</ele>
        <time>2021-03-04T13:20:08Z</time>
      </trkpt>
      <trkpt lat="47.62755" lon="4.31212">
        <ele>284.69</ele>
        <time>2021-03-04T13:20:12Z</time>
      </trkpt>
      <trkpt lat="47.62769" lon="4.31203">
        <ele>290.46</ele>
        <time>2021-03-04T13:20:18Z</time>
      </trkpt>
      <trkpt lat="47.62779" lon="4.31197">
        <ele>295.26</ele>
        <time>2021-03-04T13:20:23Z</time>
      </trkpt>
      <trkpt lat="47.62786" lon="4.31192">
        <ele>295.74</ele>
        <time>2021-03-04T13:20:27Z</time>
      </trkpt>
      <trkpt lat="47.62797" lon="4.31167">
        <ele>290.94</ele>
        <time>2021-03-04T13:20:40Z</time>
      </trkpt>
      <trkpt lat="47.62804" lon="4.31153">
        <ele>286.61</ele>
        <time>2021-03-04T13:20:50Z</time>
      </trkpt>
      <trkpt lat="47.62811" lon="4.31141">
        <ele>283.25</ele>
        <time>2021-03-04T13:20:58Z</time>
      </trkpt>
      <trkpt lat="47.62818" lon="4.31135">
        <ele>280.84</ele>
        <time>2021-03-04T13:21:04Z</time>
      </trkpt>
      <trkpt lat="47.62831" lon="4.31115">
        <ele>280.84</ele>
        <time>2021-03-04T13:21:17Z</time>
      </trkpt>
      <trkpt lat="47.62835" lon="4.31109">
        <ele>281.32</ele>
        <time>2021-03-04T13:21:20Z</time>
      </trkpt>
      <trkpt lat="47.62847" lon="4.31088">
        <ele>283.25</ele>
        <time>2021-03-04T13:21:30Z</time>
      </trkpt>
      <trkpt lat="47.6286" lon="4.31056">
        <ele>283.73</ele>
        <time>2021-03-04T13:21:43Z</time>
      </trkpt>
      <trkpt lat="47.62863" lon="4.31048">
        <ele>281.8</ele>
        <time>2021-03-04T13:21:46Z</time>
      </trkpt>
      <trkpt lat="47.62867" lon="4.3104">
        <ele>279.88</ele>
        <time>2021-03-04T13:21:49Z</time>
      </trkpt>
      <trkpt lat="47.62881" lon="4.31017">
        <ele>282.28</ele>
        <time>2021-03-04T13:22:01Z</time>
      </trkpt>
      <trkpt lat="47.62887" lon="4.31007">
        <ele>282.77</ele>
        <time>2021-03-04T13:22:05Z</time>
      </trkpt>
      <trkpt lat="47.62896" lon="4.3098">
        <ele>282.77</ele>
        <time>2021-03-04T13:22:14Z</time>
      </trkpt>
      <trkpt lat="47.62919" lon="4.30942">
        <ele>280.84</ele>
        <time>2021-03-04T13:22:24Z</time>
      </trkpt>
      <trkpt lat="47.6293" lon="4.30892">
        <ele>278.44</ele>
        <time>2021-03-04T13:22:34Z</time>
      </trkpt>
      <trkpt lat="47.62947" lon="4.30859">
        <ele>279.88</ele>
        <time>2021-03-04T13:22:44Z</time>
      </trkpt>
      <trkpt lat="47.62973" lon="4.30832">
        <ele>285.17</ele>
        <time>2021-03-04T13:22:54Z</time>
      </trkpt>
      <trkpt lat="47.63" lon="4.30788">
        <ele>283.73</ele>
        <time>2021-03-04T13:23:05Z</time>
      </trkpt>
      <trkpt lat="47.63018" lon="4.3075">
        <ele>282.28</ele>
        <time>2021-03-04T13:23:13Z</time>
      </trkpt>
      <trkpt lat="47.6304" lon="4.30697">
        <ele>279.88</ele>
        <time>2021-03-04T13:23:22Z</time>
      </trkpt>
      <trkpt lat="47.63075" lon="4.30618">
        <ele>267.86</ele>
        <time>2021-03-04T13:23:36Z</time>
      </trkpt>
      <trkpt lat="47.63097" lon="4.30564">
        <ele>263.54</ele>
        <time>2021-03-04T13:23:48Z</time>
      </trkpt>
      <trkpt lat="47.6312" lon="4.30504">
        <ele>263.54</ele>
        <time>2021-03-04T13:24:00Z</time>
      </trkpt>
      <trkpt lat="47.63137" lon="4.30455">
        <ele>263.54</ele>
        <time>2021-03-04T13:24:10Z</time>
      </trkpt>
      <trkpt lat="47.63157" lon="4.30413">
        <ele>263.06</ele>
        <time>2021-03-04T13:24:18Z</time>
      </trkpt>
      <trkpt lat="47.6317" lon="4.30383">
        <ele>259.69</ele>
        <time>2021-03-04T13:24:28Z</time>
      </trkpt>
      <trkpt lat="47.63181" lon="4.30351">
        <ele>256.81</ele>
        <time>2021-03-04T13:24:42Z</time>
      </trkpt>
      <trkpt lat="47.63186" lon="4.3033">
        <ele>254.89</ele>
        <time>2021-03-04T13:24:53Z</time>
      </trkpt>
      <trkpt lat="47.63191" lon="4.3031">
        <ele>255.37</ele>
        <time>2021-03-04T13:25:03Z</time>
      </trkpt>
      <trkpt lat="47.63195" lon="4.30293">
        <ele>256.81</ele>
        <time>2021-03-04T13:25:09Z</time>
      </trkpt>
      <trkpt lat="47.63213" lon="4.30228">
        <ele>253.44</ele>
        <time>2021-03-04T13:25:20Z</time>
      </trkpt>
      <trkpt lat="47.63215" lon="4.30213">
        <ele>253.93</ele>
        <time>2021-03-04T13:25:22Z</time>
      </trkpt>
      <trkpt lat="47.63209" lon="4.30171">
        <ele>254.89</ele>
        <time>2021-03-04T13:25:28Z</time>
      </trkpt>
      <trkpt lat="47.63203" lon="4.30155">
        <ele>254.41</ele>
        <time>2021-03-04T13:25:30Z</time>
      </trkpt>
      <trkpt lat="47.63197" lon="4.30124">
        <ele>253.93</ele>
        <time>2021-03-04T13:25:34Z</time>
      </trkpt>
      <trkpt lat="47.63194" lon="4.30109">
        <ele>252.96</ele>
        <time>2021-03-04T13:25:36Z</time>
      </trkpt>
      <trkpt lat="47.63187" lon="4.3008">
        <ele>251.52</ele>
        <time>2021-03-04T13:25:40Z</time>
      </trkpt>
      <trkpt lat="47.6317" lon="4.30028">
        <ele>250.08</ele>
        <time>2021-03-04T13:25:47Z</time>
      </trkpt>
      <trkpt lat="47.63166" lon="4.30013">
        <ele>249.6</ele>
        <time>2021-03-04T13:25:49Z</time>
      </trkpt>
      <trkpt lat="47.6316" lon="4.29993">
        <ele>249.6</ele>
        <time>2021-03-04T13:25:52Z</time>
      </trkpt>
      <trkpt lat="47.63143" lon="4.29937">
        <ele>245.75</ele>
        <time>2021-03-04T13:26:01Z</time>
      </trkpt>
      <trkpt lat="47.63137" lon="4.29921">
        <ele>245.75</ele>
        <time>2021-03-04T13:26:04Z</time>
      </trkpt>
      <trkpt lat="47.63122" lon="4.29856">
        <ele>246.23</ele>
        <time>2021-03-04T13:26:15Z</time>
      </trkpt>
      <trkpt lat="47.63112" lon="4.298">
        <ele>247.68</ele>
        <time>2021-03-04T13:26:25Z</time>
      </trkpt>
      <trkpt lat="47.63105" lon="4.29767">
        <ele>247.68</ele>
        <time>2021-03-04T13:26:31Z</time>
      </trkpt>
      <trkpt lat="47.63096" lon="4.29727">
        <ele>245.27</ele>
        <time>2021-03-04T13:26:38Z</time>
      </trkpt>
      <trkpt lat="47.63092" lon="4.29703">
        <ele>244.31</ele>
        <time>2021-03-04T13:26:42Z</time>
      </trkpt>
      <trkpt lat="47.63084" lon="4.29678">
        <ele>242.87</ele>
        <time>2021-03-04T13:26:46Z</time>
      </trkpt>
      <trkpt lat="47.63078" lon="4.29665">
        <ele>241.91</ele>
        <time>2021-03-04T13:26:48Z</time>
      </trkpt>
      <trkpt lat="47.63063" lon="4.29622">
        <ele>239.51</ele>
        <time>2021-03-04T13:26:55Z</time>
      </trkpt>
      <trkpt lat="47.63042" lon="4.29577">
        <ele>239.99</ele>
        <time>2021-03-04T13:27:05Z</time>
      </trkpt>
      <trkpt lat="47.63027" lon="4.29555">
        <ele>245.75</ele>
        <time>2021-03-04T13:27:13Z</time>
      </trkpt>
      <trkpt lat="47.63017" lon="4.29504">
        <ele>244.79</ele>
        <time>2021-03-04T13:27:19Z</time>
      </trkpt>
      <trkpt lat="47.63006" lon="4.29446">
        <ele>242.87</ele>
        <time>2021-03-04T13:27:28Z</time>
      </trkpt>
      <trkpt lat="47.62982" lon="4.29368">
        <ele>243.83</ele>
        <time>2021-03-04T13:27:41Z</time>
      </trkpt>
      <trkpt lat="47.62973" lon="4.29337">
        <ele>244.31</ele>
        <time>2021-03-04T13:27:54Z</time>
      </trkpt>
      <trkpt lat="47.62973" lon="4.29336">
        <ele>244.79</ele>
        <time>2021-03-04T13:27:57Z</time>
      </trkpt>
      <trkpt lat="47.62987" lon="4.29298">
        <ele>246.23</ele>
        <time>2021-03-04T13:28:09Z</time>
      </trkpt>
      <trkpt lat="47.62997" lon="4.29298">
        <ele>244.79</ele>
        <time>2021-03-04T13:28:13Z</time>
      </trkpt>
      <trkpt lat="47.63031" lon="4.29345">
        <ele>240.47</ele>
        <time>2021-03-04T13:28:22Z</time>
      </trkpt>
      <trkpt lat="47.63086" lon="4.29454">
        <ele>236.62</ele>
        <time>2021-03-04T13:28:35Z</time>
      </trkpt>
      <trkpt lat="47.63105" lon="4.29506">
        <ele>236.14</ele>
        <time>2021-03-04T13:28:41Z</time>
      </trkpt>
      <trkpt lat="47.6315" lon="4.29591">
        <ele>238.06</ele>
        <time>2021-03-04T13:28:53Z</time>
      </trkpt>
      <trkpt lat="47.63158" lon="4.29605">
        <ele>239.02</ele>
        <time>2021-03-04T13:28:55Z</time>
      </trkpt>
      <trkpt lat="47.63177" lon="4.29634">
        <ele>240.47</ele>
        <time>2021-03-04T13:28:59Z</time>
      </trkpt>
      <trkpt lat="47.63238" lon="4.29725">
        <ele>241.43</ele>
        <time>2021-03-04T13:29:12Z</time>
      </trkpt>
      <trkpt lat="47.63242" lon="4.29731">
        <ele>241.91</ele>
        <time>2021-03-04T13:29:13Z</time>
      </trkpt>
      <trkpt lat="47.63262" lon="4.29754">
        <ele>244.31</ele>
        <time>2021-03-04T13:29:18Z</time>
      </trkpt>
      <trkpt lat="47.63269" lon="4.29762">
        <ele>245.75</ele>
        <time>2021-03-04T13:29:20Z</time>
      </trkpt>
      <trkpt lat="47.63288" lon="4.29792">
        <ele>255.85</ele>
        <time>2021-03-04T13:29:28Z</time>
      </trkpt>
      <trkpt lat="47.63291" lon="4.29798">
        <ele>260.17</ele>
        <time>2021-03-04T13:29:30Z</time>
      </trkpt>
      <trkpt lat="47.63309" lon="4.29836">
        <ele>282.77</ele>
        <time>2021-03-04T13:29:39Z</time>
      </trkpt>
      <trkpt lat="47.63324" lon="4.29861">
        <ele>287.57</ele>
        <time>2021-03-04T13:29:44Z</time>
      </trkpt>
      <trkpt lat="47.63336" lon="4.29895">
        <ele>284.21</ele>
        <time>2021-03-04T13:29:49Z</time>
      </trkpt>
      <trkpt lat="47.63386" lon="4.2999">
        <ele>270.75</ele>
        <time>2021-03-04T13:30:01Z</time>
      </trkpt>
      <trkpt lat="47.63482" lon="4.30109">
        <ele>238.54</ele>
        <time>2021-03-04T13:30:19Z</time>
      </trkpt>
      <trkpt lat="47.63487" lon="4.30112">
        <ele>237.58</ele>
        <time>2021-03-04T13:30:20Z</time>
      </trkpt>
      <trkpt lat="47.63492" lon="4.30115">
        <ele>236.14</ele>
        <time>2021-03-04T13:30:21Z</time>
      </trkpt>
      <trkpt lat="47.63497" lon="4.30116">
        <ele>234.7</ele>
        <time>2021-03-04T13:30:22Z</time>
      </trkpt>
      <trkpt lat="47.635" lon="4.30115">
        <ele>233.74</ele>
        <time>2021-03-04T13:30:23Z</time>
      </trkpt>
      <trkpt lat="47.63502" lon="4.30115">
        <ele>232.3</ele>
        <time>2021-03-04T13:30:24Z</time>
      </trkpt>
      <trkpt lat="47.63524" lon="4.30097">
        <ele>226.05</ele>
        <time>2021-03-04T13:30:38Z</time>
      </trkpt>
      <trkpt lat="47.63548" lon="4.30085">
        <ele>227.97</ele>
        <time>2021-03-04T13:30:55Z</time>
      </trkpt>
      <trkpt lat="47.63575" lon="4.30071">
        <ele>230.85</ele>
        <time>2021-03-04T13:31:14Z</time>
      </trkpt>
      <trkpt lat="47.636" lon="4.30049">
        <ele>234.22</ele>
        <time>2021-03-04T13:31:34Z</time>
      </trkpt>
      <trkpt lat="47.63617" lon="4.3002">
        <ele>237.58</ele>
        <time>2021-03-04T13:31:52Z</time>
      </trkpt>
      <trkpt lat="47.6363" lon="4.29987">
        <ele>237.58</ele>
        <time>2021-03-04T13:32:09Z</time>
      </trkpt>
      <trkpt lat="47.63634" lon="4.29978">
        <ele>238.54</ele>
        <time>2021-03-04T13:32:14Z</time>
      </trkpt>
      <trkpt lat="47.63634" lon="4.29977">
        <ele>239.02</ele>
        <time>2021-03-04T13:32:15Z</time>
      </trkpt>
      <trkpt lat="47.63635" lon="4.29959">
        <ele>240.95</ele>
        <time>2021-03-04T13:32:25Z</time>
      </trkpt>
      <trkpt lat="47.63635" lon="4.29957">
        <ele>240.95</ele>
        <time>2021-03-04T13:32:26Z</time>
      </trkpt>
      <trkpt lat="47.63634" lon="4.29955">
        <ele>240.95</ele>
        <time>2021-03-04T13:32:27Z</time>
      </trkpt>
      <trkpt lat="47.63634" lon="4.29951">
        <ele>241.91</ele>
        <time>2021-03-04T13:32:38Z</time>
      </trkpt>
      <trkpt lat="47.63633" lon="4.2995">
        <ele>242.87</ele>
        <time>2021-03-04T13:32:54Z</time>
      </trkpt>
      <trkpt lat="47.63633" lon="4.29952">
        <ele>244.31</ele>
        <time>2021-03-04T13:33:03Z</time>
      </trkpt>
      <trkpt lat="47.63633" lon="4.29954">
        <ele>244.79</ele>
        <time>2021-03-04T13:33:04Z</time>
      </trkpt>
      <trkpt lat="47.63634" lon="4.29955">
        <ele>245.27</ele>
        <time>2021-03-04T13:33:05Z</time>
      </trkpt>
      <trkpt lat="47.63633" lon="4.29958">
        <ele>245.75</ele>
        <time>2021-03-04T13:33:06Z</time>
      </trkpt>
      <trkpt lat="47.63633" lon="4.2996">
        <ele>246.23</ele>
        <time>2021-03-04T13:33:07Z</time>
      </trkpt>
      <trkpt lat="47.63633" lon="4.29963">
        <ele>246.72</ele>
        <time>2021-03-04T13:33:08Z</time>
      </trkpt>
      <trkpt lat="47.63633" lon="4.29966">
        <ele>246.72</ele>
        <time>2021-03-04T13:33:09Z</time>
      </trkpt>
      <trkpt lat="47.63632" lon="4.2997">
        <ele>246.72</ele>
        <time>2021-03-04T13:33:10Z</time>
      </trkpt>
      <trkpt lat="47.63632" lon="4.29974">
        <ele>246.72</ele>
        <time>2021-03-04T13:33:11Z</time>
      </trkpt>
      <trkpt lat="47.63631" lon="4.29977">
        <ele>246.72</ele>
        <time>2021-03-04T13:33:12Z</time>
      </trkpt>
      <trkpt lat="47.63629" lon="4.29981">
        <ele>246.72</ele>
        <time>2021-03-04T13:33:13Z</time>
      </trkpt>
      <trkpt lat="47.63628" lon="4.29985">
        <ele>246.23</ele>
        <time>2021-03-04T13:33:14Z</time>
      </trkpt>
      <trkpt lat="47.63615" lon="4.30012">
        <ele>243.35</ele>
        <time>2021-03-04T13:33:24Z</time>
      </trkpt>
      <trkpt lat="47.63607" lon="4.3003">
        <ele>241.91</ele>
        <time>2021-03-04T13:33:28Z</time>
      </trkpt>
      <trkpt lat="47.63604" lon="4.30035">
        <ele>241.43</ele>
        <time>2021-03-04T13:33:29Z</time>
      </trkpt>
      <trkpt lat="47.636" lon="4.3004">
        <ele>240.95</ele>
        <time>2021-03-04T13:33:30Z</time>
      </trkpt>
      <trkpt lat="47.63571" lon="4.30065">
        <ele>236.62</ele>
        <time>2021-03-04T13:33:36Z</time>
      </trkpt>
      <trkpt lat="47.63529" lon="4.30086">
        <ele>230.37</ele>
        <time>2021-03-04T13:33:44Z</time>
      </trkpt>
      <trkpt lat="47.63525" lon="4.30089">
        <ele>229.41</ele>
        <time>2021-03-04T13:33:45Z</time>
      </trkpt>
      <trkpt lat="47.63521" lon="4.30094">
        <ele>228.45</ele>
        <time>2021-03-04T13:33:46Z</time>
      </trkpt>
      <trkpt lat="47.63518" lon="4.30098">
        <ele>227.49</ele>
        <time>2021-03-04T13:33:47Z</time>
      </trkpt>
      <trkpt lat="47.63516" lon="4.30102">
        <ele>226.53</ele>
        <time>2021-03-04T13:33:48Z</time>
      </trkpt>
      <trkpt lat="47.63514" lon="4.30105">
        <ele>225.57</ele>
        <time>2021-03-04T13:33:49Z</time>
      </trkpt>
      <trkpt lat="47.63512" lon="4.3011">
        <ele>224.61</ele>
        <time>2021-03-04T13:33:50Z</time>
      </trkpt>
      <trkpt lat="47.63485" lon="4.30182">
        <ele>217.4</ele>
        <time>2021-03-04T13:34:00Z</time>
      </trkpt>
      <trkpt lat="47.6348" lon="4.302">
        <ele>216.43</ele>
        <time>2021-03-04T13:34:02Z</time>
      </trkpt>
      <trkpt lat="47.63479" lon="4.3021">
        <ele>215.95</ele>
        <time>2021-03-04T13:34:03Z</time>
      </trkpt>
      <trkpt lat="47.6348" lon="4.3022">
        <ele>215.47</ele>
        <time>2021-03-04T13:34:04Z</time>
      </trkpt>
      <trkpt lat="47.63483" lon="4.30229">
        <ele>214.51</ele>
        <time>2021-03-04T13:34:05Z</time>
      </trkpt>
      <trkpt lat="47.63487" lon="4.30238">
        <ele>213.55</ele>
        <time>2021-03-04T13:34:06Z</time>
      </trkpt>
      <trkpt lat="47.63492" lon="4.30245">
        <ele>213.07</ele>
        <time>2021-03-04T13:34:07Z</time>
      </trkpt>
      <trkpt lat="47.63546" lon="4.30335">
        <ele>210.67</ele>
        <time>2021-03-04T13:34:20Z</time>
      </trkpt>
      <trkpt lat="47.63551" lon="4.30339">
        <ele>210.67</ele>
        <time>2021-03-04T13:34:21Z</time>
      </trkpt>
      <trkpt lat="47.63556" lon="4.3034">
        <ele>210.67</ele>
        <time>2021-03-04T13:34:22Z</time>
      </trkpt>
      <trkpt lat="47.63561" lon="4.3034">
        <ele>210.67</ele>
        <time>2021-03-04T13:34:23Z</time>
      </trkpt>
      <trkpt lat="47.63565" lon="4.30339">
        <ele>210.67</ele>
        <time>2021-03-04T13:34:24Z</time>
      </trkpt>
      <trkpt lat="47.63569" lon="4.30338">
        <ele>210.67</ele>
        <time>2021-03-04T13:34:25Z</time>
      </trkpt>
      <trkpt lat="47.63616" lon="4.30296">
        <ele>208.74</ele>
        <time>2021-03-04T13:34:39Z</time>
      </trkpt>
      <trkpt lat="47.63657" lon="4.30231">
        <ele>208.26</ele>
        <time>2021-03-04T13:34:54Z</time>
      </trkpt>
      <trkpt lat="47.63687" lon="4.30154">
        <ele>208.74</ele>
        <time>2021-03-04T13:35:11Z</time>
      </trkpt>
      <trkpt lat="47.63701" lon="4.30118">
        <ele>213.55</ele>
        <time>2021-03-04T13:35:28Z</time>
      </trkpt>
      <trkpt lat="47.63713" lon="4.30077">
        <ele>216.91</ele>
        <time>2021-03-04T13:35:47Z</time>
      </trkpt>
      <trkpt lat="47.63726" lon="4.30035">
        <ele>220.28</ele>
        <time>2021-03-04T13:36:09Z</time>
      </trkpt>
      <trkpt lat="47.63737" lon="4.30006">
        <ele>224.12</ele>
        <time>2021-03-04T13:36:27Z</time>
      </trkpt>
      <trkpt lat="47.63742" lon="4.29966">
        <ele>229.89</ele>
        <time>2021-03-04T13:36:47Z</time>
      </trkpt>
      <trkpt lat="47.63744" lon="4.29931">
        <ele>234.7</ele>
        <time>2021-03-04T13:37:06Z</time>
      </trkpt>
      <trkpt lat="47.63745" lon="4.29915">
        <ele>236.62</ele>
        <time>2021-03-04T13:37:15Z</time>
      </trkpt>
      <trkpt lat="47.63745" lon="4.29913">
        <ele>236.62</ele>
        <time>2021-03-04T13:37:16Z</time>
      </trkpt>
      <trkpt lat="47.63743" lon="4.29912">
        <ele>237.1</ele>
        <time>2021-03-04T13:37:17Z</time>
      </trkpt>
      <trkpt lat="47.63741" lon="4.29912">
        <ele>237.58</ele>
        <time>2021-03-04T13:37:18Z</time>
      </trkpt>
      <trkpt lat="47.6374" lon="4.29912">
        <ele>237.58</ele>
        <time>2021-03-04T13:37:19Z</time>
      </trkpt>
      <trkpt lat="47.63739" lon="4.29913">
        <ele>237.58</ele>
        <time>2021-03-04T13:37:20Z</time>
      </trkpt>
      <trkpt lat="47.63738" lon="4.29913">
        <ele>237.58</ele>
        <time>2021-03-04T13:37:21Z</time>
      </trkpt>
      <trkpt lat="47.63736" lon="4.29914">
        <ele>237.58</ele>
        <time>2021-03-04T13:37:22Z</time>
      </trkpt>
      <trkpt lat="47.63735" lon="4.29915">
        <ele>237.58</ele>
        <time>2021-03-04T13:37:23Z</time>
      </trkpt>
      <trkpt lat="47.63734" lon="4.29915">
        <ele>238.06</ele>
        <time>2021-03-04T13:37:24Z</time>
      </trkpt>
      <trkpt lat="47.63733" lon="4.29916">
        <ele>238.06</ele>
        <time>2021-03-04T13:37:25Z</time>
      </trkpt>
      <trkpt lat="47.63732" lon="4.29916">
        <ele>238.54</ele>
        <time>2021-03-04T13:37:26Z</time>
      </trkpt>
      <trkpt lat="47.63731" lon="4.29916">
        <ele>239.02</ele>
        <time>2021-03-04T13:37:27Z</time>
      </trkpt>
      <trkpt lat="47.63729" lon="4.29916">
        <ele>239.51</ele>
        <time>2021-03-04T13:37:28Z</time>
      </trkpt>
      <trkpt lat="47.6371" lon="4.29917">
        <ele>244.31</ele>
        <time>2021-03-04T13:37:46Z</time>
      </trkpt>
      <trkpt lat="47.63681" lon="4.29912">
        <ele>246.72</ele>
        <time>2021-03-04T13:38:05Z</time>
      </trkpt>
      <trkpt lat="47.6366" lon="4.29895">
        <ele>248.16</ele>
        <time>2021-03-04T13:38:23Z</time>
      </trkpt>
      <trkpt lat="47.63658" lon="4.29893">
        <ele>248.16</ele>
        <time>2021-03-04T13:38:24Z</time>
      </trkpt>
      <trkpt lat="47.63629" lon="4.29868">
        <ele>250.56</ele>
        <time>2021-03-04T13:38:40Z</time>
      </trkpt>
      <trkpt lat="47.63607" lon="4.29828">
        <ele>251.52</ele>
        <time>2021-03-04T13:38:53Z</time>
      </trkpt>
      <trkpt lat="47.63583" lon="4.29757">
        <ele>251.04</ele>
        <time>2021-03-04T13:39:10Z</time>
      </trkpt>
      <trkpt lat="47.63544" lon="4.2969">
        <ele>251.04</ele>
        <time>2021-03-04T13:39:29Z</time>
      </trkpt>
      <trkpt lat="47.63501" lon="4.29633">
        <ele>253.44</ele>
        <time>2021-03-04T13:39:49Z</time>
      </trkpt>
      <trkpt lat="47.63472" lon="4.29568">
        <ele>253.93</ele>
        <time>2021-03-04T13:40:06Z</time>
      </trkpt>
      <trkpt lat="47.63449" lon="4.29479">
        <ele>253.93</ele>
        <time>2021-03-04T13:40:25Z</time>
      </trkpt>
      <trkpt lat="47.63409" lon="4.29431">
        <ele>255.37</ele>
        <time>2021-03-04T13:40:41Z</time>
      </trkpt>
      <trkpt lat="47.63373" lon="4.29385">
        <ele>257.29</ele>
        <time>2021-03-04T13:41:00Z</time>
      </trkpt>
      <trkpt lat="47.63328" lon="4.29333">
        <ele>259.21</ele>
        <time>2021-03-04T13:41:22Z</time>
      </trkpt>
      <trkpt lat="47.63292" lon="4.29294">
        <ele>260.65</ele>
        <time>2021-03-04T13:41:39Z</time>
      </trkpt>
      <trkpt lat="47.6325" lon="4.29244">
        <ele>263.06</ele>
        <time>2021-03-04T13:42:00Z</time>
      </trkpt>
      <trkpt lat="47.63227" lon="4.29192">
        <ele>264.98</ele>
        <time>2021-03-04T13:42:18Z</time>
      </trkpt>
      <trkpt lat="47.63216" lon="4.29142">
        <ele>266.42</ele>
        <time>2021-03-04T13:42:37Z</time>
      </trkpt>
      <trkpt lat="47.63213" lon="4.29085">
        <ele>268.83</ele>
        <time>2021-03-04T13:43:00Z</time>
      </trkpt>
      <trkpt lat="47.63214" lon="4.29026">
        <ele>272.67</ele>
        <time>2021-03-04T13:43:23Z</time>
      </trkpt>
      <trkpt lat="47.63217" lon="4.28976">
        <ele>276.52</ele>
        <time>2021-03-04T13:43:43Z</time>
      </trkpt>
      <trkpt lat="47.63212" lon="4.28935">
        <ele>278.92</ele>
        <time>2021-03-04T13:44:02Z</time>
      </trkpt>
      <trkpt lat="47.63197" lon="4.28904">
        <ele>281.8</ele>
        <time>2021-03-04T13:44:20Z</time>
      </trkpt>
      <trkpt lat="47.63184" lon="4.28873">
        <ele>287.09</ele>
        <time>2021-03-04T13:44:39Z</time>
      </trkpt>
      <trkpt lat="47.63176" lon="4.28839">
        <ele>291.42</ele>
        <time>2021-03-04T13:44:59Z</time>
      </trkpt>
      <trkpt lat="47.6317" lon="4.28797">
        <ele>294.3</ele>
        <time>2021-03-04T13:45:21Z</time>
      </trkpt>
      <trkpt lat="47.63161" lon="4.28758">
        <ele>298.15</ele>
        <time>2021-03-04T13:45:41Z</time>
      </trkpt>
      <trkpt lat="47.63147" lon="4.28727">
        <ele>299.59</ele>
        <time>2021-03-04T13:46:00Z</time>
      </trkpt>
      <trkpt lat="47.63127" lon="4.28698">
        <ele>300.55</ele>
        <time>2021-03-04T13:46:20Z</time>
      </trkpt>
      <trkpt lat="47.63125" lon="4.28692">
        <ele>300.55</ele>
        <time>2021-03-04T13:46:23Z</time>
      </trkpt>
      <trkpt lat="47.63124" lon="4.28691">
        <ele>300.55</ele>
        <time>2021-03-04T13:46:24Z</time>
      </trkpt>
      <trkpt lat="47.63123" lon="4.2869">
        <ele>301.03</ele>
        <time>2021-03-04T13:46:25Z</time>
      </trkpt>
      <trkpt lat="47.63122" lon="4.28688">
        <ele>301.03</ele>
        <time>2021-03-04T13:46:26Z</time>
      </trkpt>
      <trkpt lat="47.63121" lon="4.28687">
        <ele>301.03</ele>
        <time>2021-03-04T13:46:27Z</time>
      </trkpt>
      <trkpt lat="47.63121" lon="4.28685">
        <ele>301.03</ele>
        <time>2021-03-04T13:46:28Z</time>
      </trkpt>
      <trkpt lat="47.6312" lon="4.28683">
        <ele>301.51</ele>
        <time>2021-03-04T13:46:29Z</time>
      </trkpt>
      <trkpt lat="47.63119" lon="4.28681">
        <ele>301.51</ele>
        <time>2021-03-04T13:46:30Z</time>
      </trkpt>
      <trkpt lat="47.63104" lon="4.28635">
        <ele>303.91</ele>
        <time>2021-03-04T13:46:53Z</time>
      </trkpt>
      <trkpt lat="47.63096" lon="4.28605">
        <ele>306.32</ele>
        <time>2021-03-04T13:47:07Z</time>
      </trkpt>
      <trkpt lat="47.63083" lon="4.28565">
        <ele>311.12</ele>
        <time>2021-03-04T13:47:25Z</time>
      </trkpt>
      <trkpt lat="47.63066" lon="4.28525">
        <ele>318.33</ele>
        <time>2021-03-04T13:47:43Z</time>
      </trkpt>
      <trkpt lat="47.6305" lon="4.28492">
        <ele>321.22</ele>
        <time>2021-03-04T13:47:58Z</time>
      </trkpt>
      <trkpt lat="47.63033" lon="4.28453">
        <ele>326.5</ele>
        <time>2021-03-04T13:48:14Z</time>
      </trkpt>
      <trkpt lat="47.63007" lon="4.28398">
        <ele>326.02</ele>
        <time>2021-03-04T13:48:31Z</time>
      </trkpt>
      <trkpt lat="47.62971" lon="4.28325">
        <ele>325.54</ele>
        <time>2021-03-04T13:48:53Z</time>
      </trkpt>
      <trkpt lat="47.62943" lon="4.28267">
        <ele>325.54</ele>
        <time>2021-03-04T13:49:11Z</time>
      </trkpt>
      <trkpt lat="47.62935" lon="4.28209">
        <ele>324.58</ele>
        <time>2021-03-04T13:49:23Z</time>
      </trkpt>
      <trkpt lat="47.62934" lon="4.28198">
        <ele>324.1</ele>
        <time>2021-03-04T13:49:25Z</time>
      </trkpt>
      <trkpt lat="47.6293" lon="4.2818">
        <ele>324.1</ele>
        <time>2021-03-04T13:49:28Z</time>
      </trkpt>
      <trkpt lat="47.62901" lon="4.28092">
        <ele>323.62</ele>
        <time>2021-03-04T13:49:45Z</time>
      </trkpt>
      <trkpt lat="47.62875" lon="4.28016">
        <ele>323.62</ele>
        <time>2021-03-04T13:50:00Z</time>
      </trkpt>
      <trkpt lat="47.62843" lon="4.27951">
        <ele>324.1</ele>
        <time>2021-03-04T13:50:15Z</time>
      </trkpt>
      <trkpt lat="47.62818" lon="4.27919">
        <ele>326.02</ele>
        <time>2021-03-04T13:50:27Z</time>
      </trkpt>
      <trkpt lat="47.62805" lon="4.27898">
        <ele>335.16</ele>
        <time>2021-03-04T13:50:40Z</time>
      </trkpt>
      <trkpt lat="47.62781" lon="4.27879">
        <ele>339</ele>
        <time>2021-03-04T13:50:52Z</time>
      </trkpt>
      <trkpt lat="47.62754" lon="4.27867">
        <ele>339.48</ele>
        <time>2021-03-04T13:51:03Z</time>
      </trkpt>
      <trkpt lat="47.62719" lon="4.27857">
        <ele>339.48</ele>
        <time>2021-03-04T13:51:16Z</time>
      </trkpt>
      <trkpt lat="47.62684" lon="4.27851">
        <ele>340.44</ele>
        <time>2021-03-04T13:51:28Z</time>
      </trkpt>
      <trkpt lat="47.62647" lon="4.27856">
        <ele>347.17</ele>
        <time>2021-03-04T13:51:42Z</time>
      </trkpt>
      <trkpt lat="47.62615" lon="4.27862">
        <ele>348.13</ele>
        <time>2021-03-04T13:51:53Z</time>
      </trkpt>
      <trkpt lat="47.62588" lon="4.2787">
        <ele>347.65</ele>
        <time>2021-03-04T13:52:03Z</time>
      </trkpt>
      <trkpt lat="47.62554" lon="4.2788">
        <ele>349.1</ele>
        <time>2021-03-04T13:52:13Z</time>
      </trkpt>
      <trkpt lat="47.62517" lon="4.2789">
        <ele>349.1</ele>
        <time>2021-03-04T13:52:24Z</time>
      </trkpt>
      <trkpt lat="47.62475" lon="4.27901">
        <ele>348.62</ele>
        <time>2021-03-04T13:52:36Z</time>
      </trkpt>
      <trkpt lat="47.62435" lon="4.27914">
        <ele>351.5</ele>
        <time>2021-03-04T13:52:47Z</time>
      </trkpt>
      <trkpt lat="47.62384" lon="4.27932">
        <ele>351.98</ele>
        <time>2021-03-04T13:53:00Z</time>
      </trkpt>
      <trkpt lat="47.62352" lon="4.27943">
        <ele>350.06</ele>
        <time>2021-03-04T13:53:09Z</time>
      </trkpt>
      <trkpt lat="47.62308" lon="4.27955">
        <ele>349.1</ele>
        <time>2021-03-04T13:53:22Z</time>
      </trkpt>
      <trkpt lat="47.62276" lon="4.27972">
        <ele>347.17</ele>
        <time>2021-03-04T13:53:32Z</time>
      </trkpt>
      <trkpt lat="47.62236" lon="4.2798">
        <ele>350.54</ele>
        <time>2021-03-04T13:53:45Z</time>
      </trkpt>
      <trkpt lat="47.62204" lon="4.27983">
        <ele>350.06</ele>
        <time>2021-03-04T13:53:56Z</time>
      </trkpt>
      <trkpt lat="47.62176" lon="4.27984">
        <ele>348.13</ele>
        <time>2021-03-04T13:54:06Z</time>
      </trkpt>
      <trkpt lat="47.6215" lon="4.27988">
        <ele>349.58</ele>
        <time>2021-03-04T13:54:17Z</time>
      </trkpt>
      <trkpt lat="47.6213" lon="4.27993">
        <ele>351.5</ele>
        <time>2021-03-04T13:54:30Z</time>
      </trkpt>
      <trkpt lat="47.62127" lon="4.27993">
        <ele>351.98</ele>
        <time>2021-03-04T13:54:32Z</time>
      </trkpt>
      <trkpt lat="47.62103" lon="4.27996">
        <ele>355.83</ele>
        <time>2021-03-04T13:54:47Z</time>
      </trkpt>
      <trkpt lat="47.62087" lon="4.28002">
        <ele>358.23</ele>
        <time>2021-03-04T13:54:59Z</time>
      </trkpt>
      <trkpt lat="47.62075" lon="4.28007">
        <ele>358.71</ele>
        <time>2021-03-04T13:55:08Z</time>
      </trkpt>
      <trkpt lat="47.62052" lon="4.28012">
        <ele>360.63</ele>
        <time>2021-03-04T13:55:20Z</time>
      </trkpt>
      <trkpt lat="47.62034" lon="4.28017">
        <ele>361.59</ele>
        <time>2021-03-04T13:55:30Z</time>
      </trkpt>
      <trkpt lat="47.62016" lon="4.28024">
        <ele>365.44</ele>
        <time>2021-03-04T13:55:42Z</time>
      </trkpt>
      <trkpt lat="47.61999" lon="4.28033">
        <ele>369.76</ele>
        <time>2021-03-04T13:55:54Z</time>
      </trkpt>
      <trkpt lat="47.61972" lon="4.28046">
        <ele>370.24</ele>
        <time>2021-03-04T13:56:06Z</time>
      </trkpt>
      <trkpt lat="47.61957" lon="4.28055">
        <ele>373.13</ele>
        <time>2021-03-04T13:56:14Z</time>
      </trkpt>
      <trkpt lat="47.6195" lon="4.28061">
        <ele>373.61</ele>
        <time>2021-03-04T13:56:18Z</time>
      </trkpt>
      <trkpt lat="47.61916" lon="4.28078">
        <ele>369.76</ele>
        <time>2021-03-04T13:56:31Z</time>
      </trkpt>
      <trkpt lat="47.61885" lon="4.28092">
        <ele>369.76</ele>
        <time>2021-03-04T13:56:42Z</time>
      </trkpt>
      <trkpt lat="47.6187" lon="4.28099">
        <ele>369.76</ele>
        <time>2021-03-04T13:56:48Z</time>
      </trkpt>
      <trkpt lat="47.61861" lon="4.28106">
        <ele>369.76</ele>
        <time>2021-03-04T13:56:52Z</time>
      </trkpt>
      <trkpt lat="47.61821" lon="4.28115">
        <ele>366.88</ele>
        <time>2021-03-04T13:57:05Z</time>
      </trkpt>
      <trkpt lat="47.61789" lon="4.28115">
        <ele>365.92</ele>
        <time>2021-03-04T13:57:16Z</time>
      </trkpt>
      <trkpt lat="47.61755" lon="4.28116">
        <ele>367.36</ele>
        <time>2021-03-04T13:57:27Z</time>
      </trkpt>
      <trkpt lat="47.61723" lon="4.28118">
        <ele>368.8</ele>
        <time>2021-03-04T13:57:37Z</time>
      </trkpt>
      <trkpt lat="47.6168" lon="4.28123">
        <ele>373.61</ele>
        <time>2021-03-04T13:57:51Z</time>
      </trkpt>
      <trkpt lat="47.61645" lon="4.28127">
        <ele>375.53</ele>
        <time>2021-03-04T13:58:01Z</time>
      </trkpt>
      <trkpt lat="47.6162" lon="4.28129">
        <ele>376.01</ele>
        <time>2021-03-04T13:58:08Z</time>
      </trkpt>
      <trkpt lat="47.61588" lon="4.28137">
        <ele>375.05</ele>
        <time>2021-03-04T13:58:18Z</time>
      </trkpt>
      <trkpt lat="47.61586" lon="4.28139">
        <ele>375.05</ele>
        <time>2021-03-04T13:58:19Z</time>
      </trkpt>
      <trkpt lat="47.61559" lon="4.28152">
        <ele>376.97</ele>
        <time>2021-03-04T13:58:29Z</time>
      </trkpt>
      <trkpt lat="47.61538" lon="4.28162">
        <ele>378.42</ele>
        <time>2021-03-04T13:58:37Z</time>
      </trkpt>
      <trkpt lat="47.61512" lon="4.2817">
        <ele>379.38</ele>
        <time>2021-03-04T13:58:45Z</time>
      </trkpt>
      <trkpt lat="47.61479" lon="4.28186">
        <ele>381.3</ele>
        <time>2021-03-04T13:58:56Z</time>
      </trkpt>
      <trkpt lat="47.61456" lon="4.28198">
        <ele>383.22</ele>
        <time>2021-03-04T13:59:04Z</time>
      </trkpt>
      <trkpt lat="47.61435" lon="4.28206">
        <ele>384.18</ele>
        <time>2021-03-04T13:59:11Z</time>
      </trkpt>
      <trkpt lat="47.61404" lon="4.28207">
        <ele>383.7</ele>
        <time>2021-03-04T13:59:22Z</time>
      </trkpt>
      <trkpt lat="47.61364" lon="4.282">
        <ele>383.22</ele>
        <time>2021-03-04T13:59:35Z</time>
      </trkpt>
      <trkpt lat="47.61324" lon="4.28193">
        <ele>380.82</ele>
        <time>2021-03-04T13:59:46Z</time>
      </trkpt>
      <trkpt lat="47.61307" lon="4.28189">
        <ele>380.82</ele>
        <time>2021-03-04T13:59:53Z</time>
      </trkpt>
      <trkpt lat="47.613" lon="4.28181">
        <ele>380.82</ele>
        <time>2021-03-04T13:59:57Z</time>
      </trkpt>
      <trkpt lat="47.61267" lon="4.28116">
        <ele>376.49</ele>
        <time>2021-03-04T14:00:10Z</time>
      </trkpt>
      <trkpt lat="47.61227" lon="4.28017">
        <ele>369.28</ele>
        <time>2021-03-04T14:00:21Z</time>
      </trkpt>
      <trkpt lat="47.61215" lon="4.27987">
        <ele>367.84</ele>
        <time>2021-03-04T14:00:24Z</time>
      </trkpt>
      <trkpt lat="47.61113" lon="4.27838">
        <ele>346.69</ele>
        <time>2021-03-04T14:00:39Z</time>
      </trkpt>
      <trkpt lat="47.61086" lon="4.27797">
        <ele>342.37</ele>
        <time>2021-03-04T14:00:43Z</time>
      </trkpt>
      <trkpt lat="47.61016" lon="4.27723">
        <ele>338.52</ele>
        <time>2021-03-04T14:00:55Z</time>
      </trkpt>
      <trkpt lat="47.60957" lon="4.27659">
        <ele>338.52</ele>
        <time>2021-03-04T14:01:11Z</time>
      </trkpt>
      <trkpt lat="47.60903" lon="4.27597">
        <ele>339.96</ele>
        <time>2021-03-04T14:01:30Z</time>
      </trkpt>
      <trkpt lat="47.60863" lon="4.27535">
        <ele>339.48</ele>
        <time>2021-03-04T14:01:45Z</time>
      </trkpt>
      <trkpt lat="47.60805" lon="4.27467">
        <ele>337.08</ele>
        <time>2021-03-04T14:02:00Z</time>
      </trkpt>
      <trkpt lat="47.60712" lon="4.27408">
        <ele>332.27</ele>
        <time>2021-03-04T14:02:16Z</time>
      </trkpt>
      <trkpt lat="47.60598" lon="4.27354">
        <ele>328.43</ele>
        <time>2021-03-04T14:02:33Z</time>
      </trkpt>
      <trkpt lat="47.60504" lon="4.27347">
        <ele>327.47</ele>
        <time>2021-03-04T14:02:48Z</time>
      </trkpt>
      <trkpt lat="47.60476" lon="4.27346">
        <ele>326.99</ele>
        <time>2021-03-04T14:02:53Z</time>
      </trkpt>
      <trkpt lat="47.60432" lon="4.27367">
        <ele>325.54</ele>
        <time>2021-03-04T14:03:02Z</time>
      </trkpt>
      <trkpt lat="47.60427" lon="4.27367">
        <ele>325.54</ele>
        <time>2021-03-04T14:03:03Z</time>
      </trkpt>
      <trkpt lat="47.60421" lon="4.27365">
        <ele>325.06</ele>
        <time>2021-03-04T14:03:04Z</time>
      </trkpt>
      <trkpt lat="47.60415" lon="4.27363">
        <ele>324.58</ele>
        <time>2021-03-04T14:03:05Z</time>
      </trkpt>
      <trkpt lat="47.60409" lon="4.27359">
        <ele>324.1</ele>
        <time>2021-03-04T14:03:06Z</time>
      </trkpt>
      <trkpt lat="47.60324" lon="4.27292">
        <ele>316.89</ele>
        <time>2021-03-04T14:03:18Z</time>
      </trkpt>
      <trkpt lat="47.60244" lon="4.27201">
        <ele>311.6</ele>
        <time>2021-03-04T14:03:29Z</time>
      </trkpt>
      <trkpt lat="47.60236" lon="4.27199">
        <ele>311.12</ele>
        <time>2021-03-04T14:03:30Z</time>
      </trkpt>
      <trkpt lat="47.60226" lon="4.27201">
        <ele>311.12</ele>
        <time>2021-03-04T14:03:31Z</time>
      </trkpt>
      <trkpt lat="47.60221" lon="4.27204">
        <ele>311.6</ele>
        <time>2021-03-04T14:03:32Z</time>
      </trkpt>
      <trkpt lat="47.60215" lon="4.27206">
        <ele>311.6</ele>
        <time>2021-03-04T14:03:33Z</time>
      </trkpt>
      <trkpt lat="47.60142" lon="4.27237">
        <ele>313.53</ele>
        <time>2021-03-04T14:03:47Z</time>
      </trkpt>
      <trkpt lat="47.60089" lon="4.27269">
        <ele>314.97</ele>
        <time>2021-03-04T14:04:00Z</time>
      </trkpt>
      <trkpt lat="47.60025" lon="4.27312">
        <ele>316.89</ele>
        <time>2021-03-04T14:04:17Z</time>
      </trkpt>
      <trkpt lat="47.59975" lon="4.27356">
        <ele>319.78</ele>
        <time>2021-03-04T14:04:31Z</time>
      </trkpt>
      <trkpt lat="47.59945" lon="4.27378">
        <ele>321.7</ele>
        <time>2021-03-04T14:04:39Z</time>
      </trkpt>
      <trkpt lat="47.59897" lon="4.274">
        <ele>320.74</ele>
        <time>2021-03-04T14:04:50Z</time>
      </trkpt>
      <trkpt lat="47.59894" lon="4.27403">
        <ele>320.74</ele>
        <time>2021-03-04T14:04:51Z</time>
      </trkpt>
      <trkpt lat="47.59883" lon="4.27413">
        <ele>320.74</ele>
        <time>2021-03-04T14:04:54Z</time>
      </trkpt>
      <trkpt lat="47.59865" lon="4.27432">
        <ele>321.22</ele>
        <time>2021-03-04T14:04:59Z</time>
      </trkpt>
      <trkpt lat="47.5985" lon="4.2745">
        <ele>321.7</ele>
        <time>2021-03-04T14:05:03Z</time>
      </trkpt>
      <trkpt lat="47.59802" lon="4.27524">
        <ele>324.1</ele>
        <time>2021-03-04T14:05:19Z</time>
      </trkpt>
      <trkpt lat="47.59769" lon="4.27592">
        <ele>327.47</ele>
        <time>2021-03-04T14:05:32Z</time>
      </trkpt>
      <trkpt lat="47.59752" lon="4.27652">
        <ele>334.68</ele>
        <time>2021-03-04T14:05:41Z</time>
      </trkpt>
      <trkpt lat="47.5975" lon="4.27658">
        <ele>335.64</ele>
        <time>2021-03-04T14:05:42Z</time>
      </trkpt>
      <trkpt lat="47.59728" lon="4.27751">
        <ele>348.13</ele>
        <time>2021-03-04T14:05:56Z</time>
      </trkpt>
      <trkpt lat="47.59726" lon="4.27814">
        <ele>351.5</ele>
        <time>2021-03-04T14:06:09Z</time>
      </trkpt>
      <trkpt lat="47.59723" lon="4.27865">
        <ele>359.19</ele>
        <time>2021-03-04T14:06:23Z</time>
      </trkpt>
      <trkpt lat="47.59718" lon="4.27931">
        <ele>359.19</ele>
        <time>2021-03-04T14:06:39Z</time>
      </trkpt>
      <trkpt lat="47.59718" lon="4.27934">
        <ele>358.71</ele>
        <time>2021-03-04T14:06:40Z</time>
      </trkpt>
      <trkpt lat="47.59717" lon="4.27938">
        <ele>358.71</ele>
        <time>2021-03-04T14:06:41Z</time>
      </trkpt>
      <trkpt lat="47.59717" lon="4.27943">
        <ele>358.71</ele>
        <time>2021-03-04T14:06:42Z</time>
      </trkpt>
      <trkpt lat="47.59716" lon="4.27948">
        <ele>358.71</ele>
        <time>2021-03-04T14:06:43Z</time>
      </trkpt>
      <trkpt lat="47.59715" lon="4.27953">
        <ele>358.71</ele>
        <time>2021-03-04T14:06:44Z</time>
      </trkpt>
      <trkpt lat="47.59701" lon="4.28073">
        <ele>355.34</ele>
        <time>2021-03-04T14:07:04Z</time>
      </trkpt>
      <trkpt lat="47.5969" lon="4.28188">
        <ele>350.06</ele>
        <time>2021-03-04T14:07:21Z</time>
      </trkpt>
      <trkpt lat="47.59679" lon="4.28276">
        <ele>347.65</ele>
        <time>2021-03-04T14:07:39Z</time>
      </trkpt>
      <trkpt lat="47.59664" lon="4.28341">
        <ele>346.21</ele>
        <time>2021-03-04T14:07:59Z</time>
      </trkpt>
      <trkpt lat="47.59649" lon="4.28395">
        <ele>347.17</ele>
        <time>2021-03-04T14:08:17Z</time>
      </trkpt>
      <trkpt lat="47.59634" lon="4.28468">
        <ele>347.65</ele>
        <time>2021-03-04T14:08:39Z</time>
      </trkpt>
      <trkpt lat="47.59623" lon="4.28531">
        <ele>348.13</ele>
        <time>2021-03-04T14:08:58Z</time>
      </trkpt>
      <trkpt lat="47.59616" lon="4.28596">
        <ele>348.62</ele>
        <time>2021-03-04T14:09:18Z</time>
      </trkpt>
      <trkpt lat="47.59615" lon="4.28659">
        <ele>347.65</ele>
        <time>2021-03-04T14:09:38Z</time>
      </trkpt>
      <trkpt lat="47.59615" lon="4.28722">
        <ele>344.29</ele>
        <time>2021-03-04T14:10:02Z</time>
      </trkpt>
      <trkpt lat="47.59612" lon="4.28788">
        <ele>344.77</ele>
        <time>2021-03-04T14:10:26Z</time>
      </trkpt>
      <trkpt lat="47.59609" lon="4.28864">
        <ele>345.25</ele>
        <time>2021-03-04T14:10:47Z</time>
      </trkpt>
      <trkpt lat="47.59615" lon="4.28937">
        <ele>347.17</ele>
        <time>2021-03-04T14:11:07Z</time>
      </trkpt>
      <trkpt lat="47.59606" lon="4.29001">
        <ele>350.54</ele>
        <time>2021-03-04T14:11:27Z</time>
      </trkpt>
      <trkpt lat="47.59591" lon="4.29069">
        <ele>355.34</ele>
        <time>2021-03-04T14:11:49Z</time>
      </trkpt>
      <trkpt lat="47.59575" lon="4.2915">
        <ele>356.79</ele>
        <time>2021-03-04T14:12:08Z</time>
      </trkpt>
      <trkpt lat="47.59561" lon="4.29239">
        <ele>356.79</ele>
        <time>2021-03-04T14:12:27Z</time>
      </trkpt>
      <trkpt lat="47.59557" lon="4.29269">
        <ele>355.83</ele>
        <time>2021-03-04T14:12:32Z</time>
      </trkpt>
      <trkpt lat="47.59556" lon="4.29275">
        <ele>355.83</ele>
        <time>2021-03-04T14:12:33Z</time>
      </trkpt>
      <trkpt lat="47.59555" lon="4.29282">
        <ele>355.34</ele>
        <time>2021-03-04T14:12:34Z</time>
      </trkpt>
      <trkpt lat="47.59541" lon="4.29369">
        <ele>352.46</ele>
        <time>2021-03-04T14:12:45Z</time>
      </trkpt>
      <trkpt lat="47.59539" lon="4.29378">
        <ele>351.98</ele>
        <time>2021-03-04T14:12:46Z</time>
      </trkpt>
      <trkpt lat="47.59536" lon="4.29388">
        <ele>351.02</ele>
        <time>2021-03-04T14:12:47Z</time>
      </trkpt>
      <trkpt lat="47.59532" lon="4.29397">
        <ele>350.06</ele>
        <time>2021-03-04T14:12:48Z</time>
      </trkpt>
      <trkpt lat="47.59526" lon="4.29407">
        <ele>349.1</ele>
        <time>2021-03-04T14:12:49Z</time>
      </trkpt>
      <trkpt lat="47.5952" lon="4.29417">
        <ele>348.13</ele>
        <time>2021-03-04T14:12:50Z</time>
      </trkpt>
      <trkpt lat="47.59498" lon="4.29447">
        <ele>345.73</ele>
        <time>2021-03-04T14:12:53Z</time>
      </trkpt>
      <trkpt lat="47.59489" lon="4.29454">
        <ele>345.25</ele>
        <time>2021-03-04T14:12:54Z</time>
      </trkpt>
      <trkpt lat="47.59481" lon="4.2946">
        <ele>344.77</ele>
        <time>2021-03-04T14:12:55Z</time>
      </trkpt>
      <trkpt lat="47.59472" lon="4.29465">
        <ele>344.29</ele>
        <time>2021-03-04T14:12:56Z</time>
      </trkpt>
      <trkpt lat="47.59464" lon="4.29469">
        <ele>344.29</ele>
        <time>2021-03-04T14:12:57Z</time>
      </trkpt>
      <trkpt lat="47.59456" lon="4.29472">
        <ele>344.29</ele>
        <time>2021-03-04T14:12:58Z</time>
      </trkpt>
      <trkpt lat="47.59382" lon="4.29511">
        <ele>345.73</ele>
        <time>2021-03-04T14:13:10Z</time>
      </trkpt>
      <trkpt lat="47.59296" lon="4.29532">
        <ele>342.85</ele>
        <time>2021-03-04T14:13:23Z</time>
      </trkpt>
      <trkpt lat="47.59283" lon="4.29537">
        <ele>342.37</ele>
        <time>2021-03-04T14:13:25Z</time>
      </trkpt>
      <trkpt lat="47.5927" lon="4.29545">
        <ele>342.37</ele>
        <time>2021-03-04T14:13:27Z</time>
      </trkpt>
      <trkpt lat="47.59265" lon="4.2955">
        <ele>342.37</ele>
        <time>2021-03-04T14:13:28Z</time>
      </trkpt>
      <trkpt lat="47.59259" lon="4.29555">
        <ele>342.37</ele>
        <time>2021-03-04T14:13:29Z</time>
      </trkpt>
      <trkpt lat="47.59207" lon="4.29626">
        <ele>343.33</ele>
        <time>2021-03-04T14:13:42Z</time>
      </trkpt>
      <trkpt lat="47.59142" lon="4.29721">
        <ele>343.33</ele>
        <time>2021-03-04T14:13:59Z</time>
      </trkpt>
      <trkpt lat="47.59079" lon="4.29815">
        <ele>342.85</ele>
        <time>2021-03-04T14:14:15Z</time>
      </trkpt>
      <trkpt lat="47.59022" lon="4.29896">
        <ele>345.25</ele>
        <time>2021-03-04T14:14:31Z</time>
      </trkpt>
      <trkpt lat="47.5897" lon="4.2996">
        <ele>347.17</ele>
        <time>2021-03-04T14:14:49Z</time>
      </trkpt>
      <trkpt lat="47.58917" lon="4.30016">
        <ele>342.37</ele>
        <time>2021-03-04T14:15:02Z</time>
      </trkpt>
      <trkpt lat="47.58853" lon="4.3008">
        <ele>338.52</ele>
        <time>2021-03-04T14:15:11Z</time>
      </trkpt>
      <trkpt lat="47.58832" lon="4.3009">
        <ele>342.85</ele>
        <time>2021-03-04T14:15:20Z</time>
      </trkpt>
      <trkpt lat="47.58803" lon="4.30105">
        <ele>347.17</ele>
        <time>2021-03-04T14:15:40Z</time>
      </trkpt>
      <trkpt lat="47.58776" lon="4.30119">
        <ele>350.06</ele>
        <time>2021-03-04T14:15:59Z</time>
      </trkpt>
      <trkpt lat="47.58746" lon="4.30133">
        <ele>354.38</ele>
        <time>2021-03-04T14:16:22Z</time>
      </trkpt>
      <trkpt lat="47.58717" lon="4.30148">
        <ele>359.67</ele>
        <time>2021-03-04T14:16:44Z</time>
      </trkpt>
      <trkpt lat="47.58688" lon="4.30163">
        <ele>362.55</ele>
        <time>2021-03-04T14:17:04Z</time>
      </trkpt>
      <trkpt lat="47.58655" lon="4.30176">
        <ele>365.44</ele>
        <time>2021-03-04T14:17:24Z</time>
      </trkpt>
      <trkpt lat="47.58633" lon="4.30164">
        <ele>367.84</ele>
        <time>2021-03-04T14:17:38Z</time>
      </trkpt>
      <trkpt lat="47.586" lon="4.30098">
        <ele>367.36</ele>
        <time>2021-03-04T14:17:54Z</time>
      </trkpt>
      <trkpt lat="47.58565" lon="4.30029">
        <ele>366.88</ele>
        <time>2021-03-04T14:18:10Z</time>
      </trkpt>
      <trkpt lat="47.58527" lon="4.29958">
        <ele>367.36</ele>
        <time>2021-03-04T14:18:27Z</time>
      </trkpt>
      <trkpt lat="47.58487" lon="4.29865">
        <ele>366.88</ele>
        <time>2021-03-04T14:18:46Z</time>
      </trkpt>
      <trkpt lat="47.58486" lon="4.29859">
        <ele>366.88</ele>
        <time>2021-03-04T14:18:47Z</time>
      </trkpt>
      <trkpt lat="47.58486" lon="4.29753">
        <ele>362.55</ele>
        <time>2021-03-04T14:19:01Z</time>
      </trkpt>
      <trkpt lat="47.58491" lon="4.29642">
        <ele>358.23</ele>
        <time>2021-03-04T14:19:13Z</time>
      </trkpt>
      <trkpt lat="47.58503" lon="4.29545">
        <ele>352.46</ele>
        <time>2021-03-04T14:19:23Z</time>
      </trkpt>
      <trkpt lat="47.58502" lon="4.29533">
        <ele>351.98</ele>
        <time>2021-03-04T14:19:24Z</time>
      </trkpt>
      <trkpt lat="47.585" lon="4.29522">
        <ele>351.02</ele>
        <time>2021-03-04T14:19:25Z</time>
      </trkpt>
      <trkpt lat="47.58497" lon="4.2951">
        <ele>350.54</ele>
        <time>2021-03-04T14:19:26Z</time>
      </trkpt>
      <trkpt lat="47.58494" lon="4.29499">
        <ele>349.58</ele>
        <time>2021-03-04T14:19:27Z</time>
      </trkpt>
      <trkpt lat="47.58467" lon="4.29443">
        <ele>345.25</ele>
        <time>2021-03-04T14:19:32Z</time>
      </trkpt>
      <trkpt lat="47.5846" lon="4.29433">
        <ele>344.29</ele>
        <time>2021-03-04T14:19:33Z</time>
      </trkpt>
      <trkpt lat="47.58452" lon="4.29425">
        <ele>343.33</ele>
        <time>2021-03-04T14:19:34Z</time>
      </trkpt>
      <trkpt lat="47.58445" lon="4.29419">
        <ele>342.37</ele>
        <time>2021-03-04T14:19:35Z</time>
      </trkpt>
      <trkpt lat="47.58439" lon="4.29414">
        <ele>341.89</ele>
        <time>2021-03-04T14:19:36Z</time>
      </trkpt>
      <trkpt lat="47.58432" lon="4.29411">
        <ele>340.92</ele>
        <time>2021-03-04T14:19:37Z</time>
      </trkpt>
      <trkpt lat="47.58424" lon="4.2941">
        <ele>340.44</ele>
        <time>2021-03-04T14:19:38Z</time>
      </trkpt>
      <trkpt lat="47.58417" lon="4.29412">
        <ele>339.48</ele>
        <time>2021-03-04T14:19:39Z</time>
      </trkpt>
      <trkpt lat="47.58409" lon="4.29417">
        <ele>339</ele>
        <time>2021-03-04T14:19:40Z</time>
      </trkpt>
      <trkpt lat="47.58403" lon="4.29425">
        <ele>338.04</ele>
        <time>2021-03-04T14:19:41Z</time>
      </trkpt>
      <trkpt lat="47.58397" lon="4.29433">
        <ele>337.56</ele>
        <time>2021-03-04T14:19:42Z</time>
      </trkpt>
      <trkpt lat="47.58386" lon="4.29445">
        <ele>336.12</ele>
        <time>2021-03-04T14:19:44Z</time>
      </trkpt>
      <trkpt lat="47.58381" lon="4.29449">
        <ele>335.64</ele>
        <time>2021-03-04T14:19:45Z</time>
      </trkpt>
      <trkpt lat="47.58377" lon="4.2945">
        <ele>335.16</ele>
        <time>2021-03-04T14:19:46Z</time>
      </trkpt>
      <trkpt lat="47.58372" lon="4.29446">
        <ele>334.68</ele>
        <time>2021-03-04T14:19:47Z</time>
      </trkpt>
      <trkpt lat="47.5837" lon="4.29439">
        <ele>334.68</ele>
        <time>2021-03-04T14:19:48Z</time>
      </trkpt>
      <trkpt lat="47.58369" lon="4.29431">
        <ele>334.2</ele>
        <time>2021-03-04T14:19:49Z</time>
      </trkpt>
      <trkpt lat="47.58371" lon="4.29424">
        <ele>334.2</ele>
        <time>2021-03-04T14:19:50Z</time>
      </trkpt>
      <trkpt lat="47.58374" lon="4.29416">
        <ele>333.71</ele>
        <time>2021-03-04T14:19:51Z</time>
      </trkpt>
      <trkpt lat="47.58378" lon="4.29409">
        <ele>333.23</ele>
        <time>2021-03-04T14:19:52Z</time>
      </trkpt>
      <trkpt lat="47.58383" lon="4.29401">
        <ele>333.23</ele>
        <time>2021-03-04T14:19:53Z</time>
      </trkpt>
      <trkpt lat="47.5845" lon="4.29288">
        <ele>325.54</ele>
        <time>2021-03-04T14:20:04Z</time>
      </trkpt>
      <trkpt lat="47.58485" lon="4.29246">
        <ele>322.18</ele>
        <time>2021-03-04T14:20:09Z</time>
      </trkpt>
      <trkpt lat="47.58491" lon="4.29241">
        <ele>322.18</ele>
        <time>2021-03-04T14:20:10Z</time>
      </trkpt>
      <trkpt lat="47.58494" lon="4.29235">
        <ele>322.66</ele>
        <time>2021-03-04T14:20:11Z</time>
      </trkpt>
      <trkpt lat="47.58495" lon="4.2923">
        <ele>322.66</ele>
        <time>2021-03-04T14:20:12Z</time>
      </trkpt>
      <trkpt lat="47.58495" lon="4.29225">
        <ele>323.14</ele>
        <time>2021-03-04T14:20:13Z</time>
      </trkpt>
      <trkpt lat="47.58493" lon="4.29222">
        <ele>323.14</ele>
        <time>2021-03-04T14:20:14Z</time>
      </trkpt>
      <trkpt lat="47.58491" lon="4.2922">
        <ele>323.14</ele>
        <time>2021-03-04T14:20:15Z</time>
      </trkpt>
      <trkpt lat="47.58488" lon="4.29219">
        <ele>323.14</ele>
        <time>2021-03-04T14:20:16Z</time>
      </trkpt>
      <trkpt lat="47.58485" lon="4.29219">
        <ele>323.14</ele>
        <time>2021-03-04T14:20:17Z</time>
      </trkpt>
      <trkpt lat="47.58457" lon="4.29211">
        <ele>326.5</ele>
        <time>2021-03-04T14:20:29Z</time>
      </trkpt>
      <trkpt lat="47.58438" lon="4.29186">
        <ele>329.39</ele>
        <time>2021-03-04T14:20:43Z</time>
      </trkpt>
      <trkpt lat="47.58421" lon="4.29154">
        <ele>334.2</ele>
        <time>2021-03-04T14:20:59Z</time>
      </trkpt>
      <trkpt lat="47.5841" lon="4.29127">
        <ele>340.44</ele>
        <time>2021-03-04T14:21:14Z</time>
      </trkpt>
      <trkpt lat="47.58403" lon="4.29115">
        <ele>342.37</ele>
        <time>2021-03-04T14:21:21Z</time>
      </trkpt>
      <trkpt lat="47.58402" lon="4.29113">
        <ele>342.37</ele>
        <time>2021-03-04T14:21:22Z</time>
      </trkpt>
      <trkpt lat="47.58401" lon="4.29112">
        <ele>342.37</ele>
        <time>2021-03-04T14:21:23Z</time>
      </trkpt>
      <trkpt lat="47.584" lon="4.2911">
        <ele>342.37</ele>
        <time>2021-03-04T14:21:24Z</time>
      </trkpt>
      <trkpt lat="47.58399" lon="4.29108">
        <ele>342.85</ele>
        <time>2021-03-04T14:21:25Z</time>
      </trkpt>
      <trkpt lat="47.58398" lon="4.29107">
        <ele>343.33</ele>
        <time>2021-03-04T14:21:26Z</time>
      </trkpt>
      <trkpt lat="47.58397" lon="4.29105">
        <ele>343.81</ele>
        <time>2021-03-04T14:21:27Z</time>
      </trkpt>
      <trkpt lat="47.58396" lon="4.29103">
        <ele>344.29</ele>
        <time>2021-03-04T14:21:28Z</time>
      </trkpt>
      <trkpt lat="47.58396" lon="4.29101">
        <ele>344.77</ele>
        <time>2021-03-04T14:21:29Z</time>
      </trkpt>
      <trkpt lat="47.58384" lon="4.29077">
        <ele>348.62</ele>
        <time>2021-03-04T14:21:41Z</time>
      </trkpt>
      <trkpt lat="47.58383" lon="4.29076">
        <ele>349.1</ele>
        <time>2021-03-04T14:21:42Z</time>
      </trkpt>
      <trkpt lat="47.58382" lon="4.29075">
        <ele>349.58</ele>
        <time>2021-03-04T14:21:43Z</time>
      </trkpt>
      <trkpt lat="47.5838" lon="4.29073">
        <ele>350.06</ele>
        <time>2021-03-04T14:21:44Z</time>
      </trkpt>
      <trkpt lat="47.58379" lon="4.29072">
        <ele>350.54</ele>
        <time>2021-03-04T14:21:45Z</time>
      </trkpt>
      <trkpt lat="47.58378" lon="4.2907">
        <ele>351.02</ele>
        <time>2021-03-04T14:21:46Z</time>
      </trkpt>
      <trkpt lat="47.58374" lon="4.29065">
        <ele>352.94</ele>
        <time>2021-03-04T14:21:50Z</time>
      </trkpt>
      <trkpt lat="47.58361" lon="4.29047">
        <ele>361.59</ele>
        <time>2021-03-04T14:22:03Z</time>
      </trkpt>
      <trkpt lat="47.58357" lon="4.29042">
        <ele>363.52</ele>
        <time>2021-03-04T14:22:07Z</time>
      </trkpt>
      <trkpt lat="47.58354" lon="4.29037">
        <ele>364.96</ele>
        <time>2021-03-04T14:22:12Z</time>
      </trkpt>
      <trkpt lat="47.58353" lon="4.29036">
        <ele>365.44</ele>
        <time>2021-03-04T14:22:13Z</time>
      </trkpt>
      <trkpt lat="47.58335" lon="4.29017">
        <ele>367.36</ele>
        <time>2021-03-04T14:22:25Z</time>
      </trkpt>
      <trkpt lat="47.58321" lon="4.29006">
        <ele>368.32</ele>
        <time>2021-03-04T14:22:35Z</time>
      </trkpt>
      <trkpt lat="47.58313" lon="4.29002">
        <ele>369.76</ele>
        <time>2021-03-04T14:22:42Z</time>
      </trkpt>
      <trkpt lat="47.58311" lon="4.29002">
        <ele>370.24</ele>
        <time>2021-03-04T14:22:43Z</time>
      </trkpt>
      <trkpt lat="47.58309" lon="4.29002">
        <ele>370.24</ele>
        <time>2021-03-04T14:22:44Z</time>
      </trkpt>
      <trkpt lat="47.58292" lon="4.28998">
        <ele>372.17</ele>
        <time>2021-03-04T14:22:57Z</time>
      </trkpt>
      <trkpt lat="47.58274" lon="4.28997">
        <ele>376.97</ele>
        <time>2021-03-04T14:23:10Z</time>
      </trkpt>
      <trkpt lat="47.58261" lon="4.29007">
        <ele>386.59</ele>
        <time>2021-03-04T14:23:24Z</time>
      </trkpt>
      <trkpt lat="47.58252" lon="4.29018">
        <ele>393.8</ele>
        <time>2021-03-04T14:23:36Z</time>
      </trkpt>
      <trkpt lat="47.58215" lon="4.29024">
        <ele>387.07</ele>
        <time>2021-03-04T14:23:49Z</time>
      </trkpt>
      <trkpt lat="47.58192" lon="4.29039">
        <ele>382.74</ele>
        <time>2021-03-04T14:24:04Z</time>
      </trkpt>
      <trkpt lat="47.58165" lon="4.2905">
        <ele>377.45</ele>
        <time>2021-03-04T14:24:22Z</time>
      </trkpt>
      <trkpt lat="47.58146" lon="4.2904">
        <ele>375.05</ele>
        <time>2021-03-04T14:24:38Z</time>
      </trkpt>
      <trkpt lat="47.58138" lon="4.29019">
        <ele>376.01</ele>
        <time>2021-03-04T14:24:53Z</time>
      </trkpt>
      <trkpt lat="47.58138" lon="4.29017">
        <ele>376.01</ele>
        <time>2021-03-04T14:24:54Z</time>
      </trkpt>
      <trkpt lat="47.58134" lon="4.29006">
        <ele>376.49</ele>
        <time>2021-03-04T14:25:00Z</time>
      </trkpt>
      <trkpt lat="47.58131" lon="4.28981">
        <ele>381.3</ele>
        <time>2021-03-04T14:25:15Z</time>
      </trkpt>
      <trkpt lat="47.58125" lon="4.28949">
        <ele>384.66</ele>
        <time>2021-03-04T14:25:32Z</time>
      </trkpt>
      <trkpt lat="47.58132" lon="4.28908">
        <ele>386.59</ele>
        <time>2021-03-04T14:25:48Z</time>
      </trkpt>
      <trkpt lat="47.58142" lon="4.28854">
        <ele>388.03</ele>
        <time>2021-03-04T14:26:03Z</time>
      </trkpt>
      <trkpt lat="47.58155" lon="4.28775">
        <ele>389.47</ele>
        <time>2021-03-04T14:26:20Z</time>
      </trkpt>
      <trkpt lat="47.58168" lon="4.28689">
        <ele>387.07</ele>
        <time>2021-03-04T14:26:36Z</time>
      </trkpt>
      <trkpt lat="47.58175" lon="4.28645">
        <ele>384.66</ele>
        <time>2021-03-04T14:26:43Z</time>
      </trkpt>
      <trkpt lat="47.58176" lon="4.28639">
        <ele>384.18</ele>
        <time>2021-03-04T14:26:44Z</time>
      </trkpt>
      <trkpt lat="47.58176" lon="4.28632">
        <ele>384.18</ele>
        <time>2021-03-04T14:26:45Z</time>
      </trkpt>
      <trkpt lat="47.58177" lon="4.28626">
        <ele>384.18</ele>
        <time>2021-03-04T14:26:46Z</time>
      </trkpt>
      <trkpt lat="47.58178" lon="4.28619">
        <ele>383.7</ele>
        <time>2021-03-04T14:26:47Z</time>
      </trkpt>
      <trkpt lat="47.58182" lon="4.28593">
        <ele>382.74</ele>
        <time>2021-03-04T14:26:51Z</time>
      </trkpt>
      <trkpt lat="47.58188" lon="4.28558">
        <ele>381.3</ele>
        <time>2021-03-04T14:26:56Z</time>
      </trkpt>
      <trkpt lat="47.58214" lon="4.2843">
        <ele>375.53</ele>
        <time>2021-03-04T14:27:11Z</time>
      </trkpt>
      <trkpt lat="47.5823" lon="4.2833">
        <ele>370.73</ele>
        <time>2021-03-04T14:27:19Z</time>
      </trkpt>
      <trkpt lat="47.5823" lon="4.28275">
        <ele>368.32</ele>
        <time>2021-03-04T14:27:23Z</time>
      </trkpt>
      <trkpt lat="47.58238" lon="4.28089">
        <ele>352.94</ele>
        <time>2021-03-04T14:27:35Z</time>
      </trkpt>
      <trkpt lat="47.5828" lon="4.27937">
        <ele>341.89</ele>
        <time>2021-03-04T14:27:45Z</time>
      </trkpt>
      <trkpt lat="47.58287" lon="4.27906">
        <ele>339.96</ele>
        <time>2021-03-04T14:27:47Z</time>
      </trkpt>
      <trkpt lat="47.58289" lon="4.2789">
        <ele>339.48</ele>
        <time>2021-03-04T14:27:48Z</time>
      </trkpt>
      <trkpt lat="47.58291" lon="4.27874">
        <ele>338.52</ele>
        <time>2021-03-04T14:27:49Z</time>
      </trkpt>
      <trkpt lat="47.58291" lon="4.27843">
        <ele>336.6</ele>
        <time>2021-03-04T14:27:51Z</time>
      </trkpt>
      <trkpt lat="47.5829" lon="4.27828">
        <ele>336.12</ele>
        <time>2021-03-04T14:27:52Z</time>
      </trkpt>
      <trkpt lat="47.58287" lon="4.27813">
        <ele>335.16</ele>
        <time>2021-03-04T14:27:53Z</time>
      </trkpt>
      <trkpt lat="47.58283" lon="4.27798">
        <ele>334.68</ele>
        <time>2021-03-04T14:27:54Z</time>
      </trkpt>
      <trkpt lat="47.58279" lon="4.27784">
        <ele>334.2</ele>
        <time>2021-03-04T14:27:55Z</time>
      </trkpt>
      <trkpt lat="47.58261" lon="4.27734">
        <ele>332.75</ele>
        <time>2021-03-04T14:27:59Z</time>
      </trkpt>
      <trkpt lat="47.58257" lon="4.27723">
        <ele>332.75</ele>
        <time>2021-03-04T14:28:00Z</time>
      </trkpt>
      <trkpt lat="47.58251" lon="4.27713">
        <ele>332.75</ele>
        <time>2021-03-04T14:28:01Z</time>
      </trkpt>
      <trkpt lat="47.58245" lon="4.27704">
        <ele>332.75</ele>
        <time>2021-03-04T14:28:02Z</time>
      </trkpt>
      <trkpt lat="47.58239" lon="4.27696">
        <ele>332.75</ele>
        <time>2021-03-04T14:28:03Z</time>
      </trkpt>
      <trkpt lat="47.58232" lon="4.27688">
        <ele>332.75</ele>
        <time>2021-03-04T14:28:04Z</time>
      </trkpt>
      <trkpt lat="47.58225" lon="4.27681">
        <ele>332.75</ele>
        <time>2021-03-04T14:28:05Z</time>
      </trkpt>
      <trkpt lat="47.58218" lon="4.27675">
        <ele>332.75</ele>
        <time>2021-03-04T14:28:06Z</time>
      </trkpt>
      <trkpt lat="47.58212" lon="4.27669">
        <ele>332.27</ele>
        <time>2021-03-04T14:28:07Z</time>
      </trkpt>
      <trkpt lat="47.58205" lon="4.27663">
        <ele>332.27</ele>
        <time>2021-03-04T14:28:08Z</time>
      </trkpt>
      <trkpt lat="47.58199" lon="4.27657">
        <ele>332.27</ele>
        <time>2021-03-04T14:28:09Z</time>
      </trkpt>
      <trkpt lat="47.58104" lon="4.27611">
        <ele>327.47</ele>
        <time>2021-03-04T14:28:21Z</time>
      </trkpt>
      <trkpt lat="47.57962" lon="4.27587">
        <ele>320.26</ele>
        <time>2021-03-04T14:28:37Z</time>
      </trkpt>
      <trkpt lat="47.57954" lon="4.27584">
        <ele>319.3</ele>
        <time>2021-03-04T14:28:38Z</time>
      </trkpt>
      <trkpt lat="47.57945" lon="4.2758">
        <ele>318.81</ele>
        <time>2021-03-04T14:28:39Z</time>
      </trkpt>
      <trkpt lat="47.57925" lon="4.27565">
        <ele>318.33</ele>
        <time>2021-03-04T14:28:42Z</time>
      </trkpt>
      <trkpt lat="47.57917" lon="4.27559">
        <ele>318.33</ele>
        <time>2021-03-04T14:28:44Z</time>
      </trkpt>
      <trkpt lat="47.57914" lon="4.2756">
        <ele>318.33</ele>
        <time>2021-03-04T14:28:45Z</time>
      </trkpt>
      <trkpt lat="47.57912" lon="4.27563">
        <ele>318.81</ele>
        <time>2021-03-04T14:28:46Z</time>
      </trkpt>
      <trkpt lat="47.57912" lon="4.27567">
        <ele>319.3</ele>
        <time>2021-03-04T14:28:47Z</time>
      </trkpt>
      <trkpt lat="47.57912" lon="4.2757">
        <ele>319.3</ele>
        <time>2021-03-04T14:28:48Z</time>
      </trkpt>
      <trkpt lat="47.57912" lon="4.27574">
        <ele>319.78</ele>
        <time>2021-03-04T14:28:49Z</time>
      </trkpt>
      <trkpt lat="47.57911" lon="4.27578">
        <ele>320.26</ele>
        <time>2021-03-04T14:28:50Z</time>
      </trkpt>
      <trkpt lat="47.5791" lon="4.27626">
        <ele>323.14</ele>
        <time>2021-03-04T14:29:05Z</time>
      </trkpt>
      <trkpt lat="47.57913" lon="4.27673">
        <ele>326.99</ele>
        <time>2021-03-04T14:29:21Z</time>
      </trkpt>
      <trkpt lat="47.57917" lon="4.27717">
        <ele>332.75</ele>
        <time>2021-03-04T14:29:39Z</time>
      </trkpt>
      <trkpt lat="47.57919" lon="4.27769">
        <ele>339</ele>
        <time>2021-03-04T14:30:00Z</time>
      </trkpt>
      <trkpt lat="47.57914" lon="4.27826">
        <ele>344.77</ele>
        <time>2021-03-04T14:30:22Z</time>
      </trkpt>
      <trkpt lat="47.57899" lon="4.27869">
        <ele>348.13</ele>
        <time>2021-03-04T14:30:41Z</time>
      </trkpt>
      <trkpt lat="47.57877" lon="4.27903">
        <ele>351.02</ele>
        <time>2021-03-04T14:31:00Z</time>
      </trkpt>
      <trkpt lat="47.57861" lon="4.2792">
        <ele>356.31</ele>
        <time>2021-03-04T14:31:15Z</time>
      </trkpt>
      <trkpt lat="47.57844" lon="4.27939">
        <ele>367.84</ele>
        <time>2021-03-04T14:31:32Z</time>
      </trkpt>
      <trkpt lat="47.57825" lon="4.2795">
        <ele>374.57</ele>
        <time>2021-03-04T14:31:45Z</time>
      </trkpt>
      <trkpt lat="47.57787" lon="4.2797">
        <ele>375.53</ele>
        <time>2021-03-04T14:32:03Z</time>
      </trkpt>
      <trkpt lat="47.57748" lon="4.27989">
        <ele>376.97</ele>
        <time>2021-03-04T14:32:22Z</time>
      </trkpt>
      <trkpt lat="47.57714" lon="4.28008">
        <ele>376.97</ele>
        <time>2021-03-04T14:32:40Z</time>
      </trkpt>
      <trkpt lat="47.57678" lon="4.28031">
        <ele>378.9</ele>
        <time>2021-03-04T14:33:01Z</time>
      </trkpt>
      <trkpt lat="47.57643" lon="4.28054">
        <ele>380.82</ele>
        <time>2021-03-04T14:33:22Z</time>
      </trkpt>
      <trkpt lat="47.5761" lon="4.28075">
        <ele>382.26</ele>
        <time>2021-03-04T14:33:41Z</time>
      </trkpt>
      <trkpt lat="47.57577" lon="4.28094">
        <ele>383.7</ele>
        <time>2021-03-04T14:34:00Z</time>
      </trkpt>
      <trkpt lat="47.57546" lon="4.28113">
        <ele>384.18</ele>
        <time>2021-03-04T14:34:18Z</time>
      </trkpt>
      <trkpt lat="47.57519" lon="4.28129">
        <ele>385.15</ele>
        <time>2021-03-04T14:34:34Z</time>
      </trkpt>
      <trkpt lat="47.5748" lon="4.28154">
        <ele>386.59</ele>
        <time>2021-03-04T14:34:56Z</time>
      </trkpt>
      <trkpt lat="47.57456" lon="4.28189">
        <ele>387.55</ele>
        <time>2021-03-04T14:35:14Z</time>
      </trkpt>
      <trkpt lat="47.57426" lon="4.28243">
        <ele>389.47</ele>
        <time>2021-03-04T14:35:37Z</time>
      </trkpt>
      <trkpt lat="47.57403" lon="4.28283">
        <ele>391.39</ele>
        <time>2021-03-04T14:35:54Z</time>
      </trkpt>
      <trkpt lat="47.57368" lon="4.28324">
        <ele>392.84</ele>
        <time>2021-03-04T14:36:16Z</time>
      </trkpt>
      <trkpt lat="47.57331" lon="4.28362">
        <ele>394.28</ele>
        <time>2021-03-04T14:36:37Z</time>
      </trkpt>
      <trkpt lat="47.57302" lon="4.28388">
        <ele>394.28</ele>
        <time>2021-03-04T14:36:56Z</time>
      </trkpt>
      <trkpt lat="47.57277" lon="4.28374">
        <ele>396.2</ele>
        <time>2021-03-04T14:37:12Z</time>
      </trkpt>
      <trkpt lat="47.57248" lon="4.28337">
        <ele>398.12</ele>
        <time>2021-03-04T14:37:31Z</time>
      </trkpt>
      <trkpt lat="47.57205" lon="4.28286">
        <ele>397.16</ele>
        <time>2021-03-04T14:37:47Z</time>
      </trkpt>
      <trkpt lat="47.57168" lon="4.28248">
        <ele>395.24</ele>
        <time>2021-03-04T14:37:56Z</time>
      </trkpt>
      <trkpt lat="47.57164" lon="4.28244">
        <ele>395.24</ele>
        <time>2021-03-04T14:37:57Z</time>
      </trkpt>
      <trkpt lat="47.57142" lon="4.28226">
        <ele>392.84</ele>
        <time>2021-03-04T14:38:01Z</time>
      </trkpt>
      <trkpt lat="47.57119" lon="4.28192">
        <ele>389.95</ele>
        <time>2021-03-04T14:38:05Z</time>
      </trkpt>
      <trkpt lat="47.57089" lon="4.28144">
        <ele>384.66</ele>
        <time>2021-03-04T14:38:11Z</time>
      </trkpt>
      <trkpt lat="47.57073" lon="4.2812">
        <ele>382.26</ele>
        <time>2021-03-04T14:38:14Z</time>
      </trkpt>
      <trkpt lat="47.57041" lon="4.28085">
        <ele>377.45</ele>
        <time>2021-03-04T14:38:19Z</time>
      </trkpt>
      <trkpt lat="47.56996" lon="4.28058">
        <ele>371.21</ele>
        <time>2021-03-04T14:38:25Z</time>
      </trkpt>
      <trkpt lat="47.56975" lon="4.28044">
        <ele>367.84</ele>
        <time>2021-03-04T14:38:28Z</time>
      </trkpt>
      <trkpt lat="47.56957" lon="4.28024">
        <ele>364</ele>
        <time>2021-03-04T14:38:31Z</time>
      </trkpt>
      <trkpt lat="47.56912" lon="4.27962">
        <ele>356.31</ele>
        <time>2021-03-04T14:38:38Z</time>
      </trkpt>
      <trkpt lat="47.56885" lon="4.27926">
        <ele>350.54</ele>
        <time>2021-03-04T14:38:43Z</time>
      </trkpt>
      <trkpt lat="47.56868" lon="4.27909">
        <ele>346.21</ele>
        <time>2021-03-04T14:38:47Z</time>
      </trkpt>
      <trkpt lat="47.56852" lon="4.27901">
        <ele>340.92</ele>
        <time>2021-03-04T14:38:51Z</time>
      </trkpt>
      <trkpt lat="47.56816" lon="4.27881">
        <ele>335.64</ele>
        <time>2021-03-04T14:39:00Z</time>
      </trkpt>
      <trkpt lat="47.56813" lon="4.27875">
        <ele>334.68</ele>
        <time>2021-03-04T14:39:01Z</time>
      </trkpt>
      <trkpt lat="47.56801" lon="4.27848">
        <ele>330.35</ele>
        <time>2021-03-04T14:39:05Z</time>
      </trkpt>
      <trkpt lat="47.5676" lon="4.27797">
        <ele>319.78</ele>
        <time>2021-03-04T14:39:14Z</time>
      </trkpt>
      <trkpt lat="47.56695" lon="4.27708">
        <ele>309.2</ele>
        <time>2021-03-04T14:39:27Z</time>
      </trkpt>
      <trkpt lat="47.56646" lon="4.27642">
        <ele>297.18</ele>
        <time>2021-03-04T14:39:35Z</time>
      </trkpt>
      <trkpt lat="47.56559" lon="4.27586">
        <ele>280.36</ele>
        <time>2021-03-04T14:39:44Z</time>
      </trkpt>
      <trkpt lat="47.56548" lon="4.27578">
        <ele>277.96</ele>
        <time>2021-03-04T14:39:46Z</time>
      </trkpt>
      <trkpt lat="47.56524" lon="4.27588">
        <ele>276.04</ele>
        <time>2021-03-04T14:39:52Z</time>
      </trkpt>
      <trkpt lat="47.56456" lon="4.27689">
        <ele>276.52</ele>
        <time>2021-03-04T14:40:12Z</time>
      </trkpt>
      <trkpt lat="47.56416" lon="4.27754">
        <ele>275.56</ele>
        <time>2021-03-04T14:40:27Z</time>
      </trkpt>
      <trkpt lat="47.56356" lon="4.27806">
        <ele>269.79</ele>
        <time>2021-03-04T14:40:37Z</time>
      </trkpt>
      <trkpt lat="47.56306" lon="4.27839">
        <ele>265.94</ele>
        <time>2021-03-04T14:40:43Z</time>
      </trkpt>
      <trkpt lat="47.56235" lon="4.27918">
        <ele>260.17</ele>
        <time>2021-03-04T14:40:53Z</time>
      </trkpt>
      <trkpt lat="47.56222" lon="4.2793">
        <ele>258.73</ele>
        <time>2021-03-04T14:40:55Z</time>
      </trkpt>
      <trkpt lat="47.56203" lon="4.27938">
        <ele>257.29</ele>
        <time>2021-03-04T14:40:58Z</time>
      </trkpt>
      <trkpt lat="47.56145" lon="4.27997">
        <ele>252</ele>
        <time>2021-03-04T14:41:08Z</time>
      </trkpt>
      <trkpt lat="47.56127" lon="4.28012">
        <ele>250.56</ele>
        <time>2021-03-04T14:41:11Z</time>
      </trkpt>
      <trkpt lat="47.56122" lon="4.2802">
        <ele>250.08</ele>
        <time>2021-03-04T14:41:12Z</time>
      </trkpt>
      <trkpt lat="47.56118" lon="4.28027">
        <ele>250.08</ele>
        <time>2021-03-04T14:41:13Z</time>
      </trkpt>
      <trkpt lat="47.56104" lon="4.28055">
        <ele>251.04</ele>
        <time>2021-03-04T14:41:17Z</time>
      </trkpt>
      <trkpt lat="47.56101" lon="4.2806">
        <ele>251.04</ele>
        <time>2021-03-04T14:41:18Z</time>
      </trkpt>
      <trkpt lat="47.5608" lon="4.281">
        <ele>255.37</ele>
        <time>2021-03-04T14:41:28Z</time>
      </trkpt>
      <trkpt lat="47.56057" lon="4.28147">
        <ele>258.73</ele>
        <time>2021-03-04T14:41:43Z</time>
      </trkpt>
      <trkpt lat="47.56033" lon="4.28201">
        <ele>262.1</ele>
        <time>2021-03-04T14:42:00Z</time>
      </trkpt>
      <trkpt lat="47.56016" lon="4.28235">
        <ele>266.42</ele>
        <time>2021-03-04T14:42:12Z</time>
      </trkpt>
      <trkpt lat="47.55989" lon="4.28267">
        <ele>267.86</ele>
        <time>2021-03-04T14:42:25Z</time>
      </trkpt>
      <trkpt lat="47.55939" lon="4.28312">
        <ele>265.94</ele>
        <time>2021-03-04T14:42:42Z</time>
      </trkpt>
      <trkpt lat="47.55902" lon="4.28345">
        <ele>265.94</ele>
        <time>2021-03-04T14:42:56Z</time>
      </trkpt>
      <trkpt lat="47.55886" lon="4.28372">
        <ele>267.86</ele>
        <time>2021-03-04T14:43:10Z</time>
      </trkpt>
      <trkpt lat="47.55881" lon="4.2841">
        <ele>269.79</ele>
        <time>2021-03-04T14:43:28Z</time>
      </trkpt>
      <trkpt lat="47.55879" lon="4.28442">
        <ele>276.04</ele>
        <time>2021-03-04T14:43:47Z</time>
      </trkpt>
      <trkpt lat="47.55871" lon="4.28478">
        <ele>280.36</ele>
        <time>2021-03-04T14:44:07Z</time>
      </trkpt>
      <trkpt lat="47.55861" lon="4.28514">
        <ele>283.25</ele>
        <time>2021-03-04T14:44:28Z</time>
      </trkpt>
      <trkpt lat="47.55849" lon="4.28547">
        <ele>285.17</ele>
        <time>2021-03-04T14:44:48Z</time>
      </trkpt>
      <trkpt lat="47.55836" lon="4.28579">
        <ele>289.01</ele>
        <time>2021-03-04T14:45:07Z</time>
      </trkpt>
      <trkpt lat="47.55826" lon="4.28607">
        <ele>292.38</ele>
        <time>2021-03-04T14:45:26Z</time>
      </trkpt>
      <trkpt lat="47.55819" lon="4.28641">
        <ele>296.7</ele>
        <time>2021-03-04T14:45:44Z</time>
      </trkpt>
      <trkpt lat="47.55814" lon="4.28672">
        <ele>301.03</ele>
        <time>2021-03-04T14:46:02Z</time>
      </trkpt>
      <trkpt lat="47.55808" lon="4.28705">
        <ele>303.91</ele>
        <time>2021-03-04T14:46:20Z</time>
      </trkpt>
      <trkpt lat="47.55804" lon="4.28741">
        <ele>306.32</ele>
        <time>2021-03-04T14:46:40Z</time>
      </trkpt>
      <trkpt lat="47.55793" lon="4.28777">
        <ele>309.2</ele>
        <time>2021-03-04T14:47:00Z</time>
      </trkpt>
      <trkpt lat="47.55766" lon="4.28814">
        <ele>310.16</ele>
        <time>2021-03-04T14:47:23Z</time>
      </trkpt>
      <trkpt lat="47.55739" lon="4.28858">
        <ele>312.09</ele>
        <time>2021-03-04T14:47:43Z</time>
      </trkpt>
      <trkpt lat="47.55726" lon="4.28895">
        <ele>315.93</ele>
        <time>2021-03-04T14:48:01Z</time>
      </trkpt>
      <trkpt lat="47.55715" lon="4.28937">
        <ele>317.85</ele>
        <time>2021-03-04T14:48:22Z</time>
      </trkpt>
      <trkpt lat="47.55701" lon="4.28977">
        <ele>321.22</ele>
        <time>2021-03-04T14:48:44Z</time>
      </trkpt>
      <trkpt lat="47.55688" lon="4.2903">
        <ele>324.58</ele>
        <time>2021-03-04T14:49:09Z</time>
      </trkpt>
      <trkpt lat="47.55684" lon="4.2908">
        <ele>327.47</ele>
        <time>2021-03-04T14:49:32Z</time>
      </trkpt>
      <trkpt lat="47.55679" lon="4.29123">
        <ele>326.99</ele>
        <time>2021-03-04T14:49:51Z</time>
      </trkpt>
      <trkpt lat="47.55684" lon="4.29165">
        <ele>331.31</ele>
        <time>2021-03-04T14:50:11Z</time>
      </trkpt>
      <trkpt lat="47.55686" lon="4.29174">
        <ele>332.27</ele>
        <time>2021-03-04T14:50:16Z</time>
      </trkpt>
      <trkpt lat="47.55686" lon="4.29176">
        <ele>332.75</ele>
        <time>2021-03-04T14:50:17Z</time>
      </trkpt>
      <trkpt lat="47.55687" lon="4.29178">
        <ele>333.23</ele>
        <time>2021-03-04T14:50:18Z</time>
      </trkpt>
      <trkpt lat="47.55693" lon="4.2922">
        <ele>338.52</ele>
        <time>2021-03-04T14:50:39Z</time>
      </trkpt>
      <trkpt lat="47.55693" lon="4.29249">
        <ele>345.73</ele>
        <time>2021-03-04T14:50:55Z</time>
      </trkpt>
      <trkpt lat="47.55696" lon="4.29293">
        <ele>347.65</ele>
        <time>2021-03-04T14:51:14Z</time>
      </trkpt>
      <trkpt lat="47.55703" lon="4.29348">
        <ele>348.13</ele>
        <time>2021-03-04T14:51:37Z</time>
      </trkpt>
      <trkpt lat="47.55705" lon="4.29406">
        <ele>348.13</ele>
        <time>2021-03-04T14:51:58Z</time>
      </trkpt>
      <trkpt lat="47.55713" lon="4.29475">
        <ele>348.13</ele>
        <time>2021-03-04T14:52:21Z</time>
      </trkpt>
      <trkpt lat="47.55727" lon="4.29497">
        <ele>352.94</ele>
        <time>2021-03-04T14:52:37Z</time>
      </trkpt>
      <trkpt lat="47.55743" lon="4.29532">
        <ele>360.15</ele>
        <time>2021-03-04T14:52:59Z</time>
      </trkpt>
      <trkpt lat="47.5575" lon="4.29554">
        <ele>370.73</ele>
        <time>2021-03-04T14:53:16Z</time>
      </trkpt>
      <trkpt lat="47.55756" lon="4.29575">
        <ele>375.53</ele>
        <time>2021-03-04T14:53:30Z</time>
      </trkpt>
      <trkpt lat="47.55767" lon="4.29611">
        <ele>377.94</ele>
        <time>2021-03-04T14:53:48Z</time>
      </trkpt>
      <trkpt lat="47.55781" lon="4.29655">
        <ele>379.38</ele>
        <time>2021-03-04T14:54:10Z</time>
      </trkpt>
      <trkpt lat="47.55791" lon="4.29691">
        <ele>379.86</ele>
        <time>2021-03-04T14:54:29Z</time>
      </trkpt>
      <trkpt lat="47.55809" lon="4.2972">
        <ele>378.42</ele>
        <time>2021-03-04T14:54:46Z</time>
      </trkpt>
      <trkpt lat="47.55811" lon="4.2972">
        <ele>377.94</ele>
        <time>2021-03-04T14:54:47Z</time>
      </trkpt>
      <trkpt lat="47.55813" lon="4.2972">
        <ele>377.45</ele>
        <time>2021-03-04T14:54:48Z</time>
      </trkpt>
      <trkpt lat="47.55814" lon="4.2972">
        <ele>376.97</ele>
        <time>2021-03-04T14:54:49Z</time>
      </trkpt>
      <trkpt lat="47.55816" lon="4.2972">
        <ele>376.97</ele>
        <time>2021-03-04T14:54:50Z</time>
      </trkpt>
      <trkpt lat="47.55818" lon="4.2972">
        <ele>376.97</ele>
        <time>2021-03-04T14:54:51Z</time>
      </trkpt>
      <trkpt lat="47.55826" lon="4.2973">
        <ele>377.45</ele>
        <time>2021-03-04T14:55:00Z</time>
      </trkpt>
      <trkpt lat="47.55855" lon="4.29734">
        <ele>378.9</ele>
        <time>2021-03-04T14:55:21Z</time>
      </trkpt>
      <trkpt lat="47.55886" lon="4.29733">
        <ele>380.82</ele>
        <time>2021-03-04T14:55:44Z</time>
      </trkpt>
      <trkpt lat="47.55914" lon="4.29733">
        <ele>386.11</ele>
        <time>2021-03-04T14:56:04Z</time>
      </trkpt>
      <trkpt lat="47.5594" lon="4.29736">
        <ele>391.39</ele>
        <time>2021-03-04T14:56:25Z</time>
      </trkpt>
      <trkpt lat="47.55967" lon="4.29748">
        <ele>394.28</ele>
        <time>2021-03-04T14:56:46Z</time>
      </trkpt>
      <trkpt lat="47.55999" lon="4.29767">
        <ele>396.68</ele>
        <time>2021-03-04T14:57:10Z</time>
      </trkpt>
      <trkpt lat="47.56032" lon="4.29775">
        <ele>400.05</ele>
        <time>2021-03-04T14:57:34Z</time>
      </trkpt>
      <trkpt lat="47.56057" lon="4.29778">
        <ele>402.93</ele>
        <time>2021-03-04T14:57:52Z</time>
      </trkpt>
      <trkpt lat="47.56089" lon="4.29784">
        <ele>405.81</ele>
        <time>2021-03-04T14:58:15Z</time>
      </trkpt>
      <trkpt lat="47.5612" lon="4.29789">
        <ele>409.18</ele>
        <time>2021-03-04T14:58:37Z</time>
      </trkpt>
      <trkpt lat="47.56153" lon="4.29796">
        <ele>411.58</ele>
        <time>2021-03-04T14:59:00Z</time>
      </trkpt>
      <trkpt lat="47.56191" lon="4.29801">
        <ele>415.43</ele>
        <time>2021-03-04T14:59:26Z</time>
      </trkpt>
      <trkpt lat="47.56221" lon="4.29806">
        <ele>418.31</ele>
        <time>2021-03-04T14:59:47Z</time>
      </trkpt>
      <trkpt lat="47.56252" lon="4.2981">
        <ele>420.23</ele>
        <time>2021-03-04T15:00:09Z</time>
      </trkpt>
      <trkpt lat="47.5628" lon="4.29816">
        <ele>424.56</ele>
        <time>2021-03-04T15:00:29Z</time>
      </trkpt>
      <trkpt lat="47.56312" lon="4.29825">
        <ele>428.4</ele>
        <time>2021-03-04T15:00:52Z</time>
      </trkpt>
      <trkpt lat="47.56331" lon="4.29856">
        <ele>429.85</ele>
        <time>2021-03-04T15:01:04Z</time>
      </trkpt>
      <trkpt lat="47.56339" lon="4.29877">
        <ele>428.89</ele>
        <time>2021-03-04T15:01:08Z</time>
      </trkpt>
      <trkpt lat="47.56353" lon="4.29896">
        <ele>428.89</ele>
        <time>2021-03-04T15:01:12Z</time>
      </trkpt>
      <trkpt lat="47.56367" lon="4.29921">
        <ele>428.4</ele>
        <time>2021-03-04T15:01:19Z</time>
      </trkpt>
      <trkpt lat="47.56358" lon="4.29944">
        <ele>426.48</ele>
        <time>2021-03-04T15:01:23Z</time>
      </trkpt>
      <trkpt lat="47.56349" lon="4.29955">
        <ele>424.56</ele>
        <time>2021-03-04T15:01:25Z</time>
      </trkpt>
      <trkpt lat="47.56341" lon="4.30014">
        <ele>419.27</ele>
        <time>2021-03-04T15:01:31Z</time>
      </trkpt>
      <trkpt lat="47.56351" lon="4.30034">
        <ele>417.83</ele>
        <time>2021-03-04T15:01:33Z</time>
      </trkpt>
      <trkpt lat="47.56351" lon="4.30091">
        <ele>413.98</ele>
        <time>2021-03-04T15:01:40Z</time>
      </trkpt>
      <trkpt lat="47.5626" lon="4.30218">
        <ele>402.93</ele>
        <time>2021-03-04T15:01:54Z</time>
      </trkpt>
      <trkpt lat="47.5619" lon="4.3035">
        <ele>395.24</ele>
        <time>2021-03-04T15:02:06Z</time>
      </trkpt>
      <trkpt lat="47.56172" lon="4.30489">
        <ele>383.7</ele>
        <time>2021-03-04T15:02:15Z</time>
      </trkpt>
      <trkpt lat="47.56171" lon="4.30642">
        <ele>367.84</ele>
        <time>2021-03-04T15:02:25Z</time>
      </trkpt>
      <trkpt lat="47.56163" lon="4.30693">
        <ele>362.55</ele>
        <time>2021-03-04T15:02:29Z</time>
      </trkpt>
      <trkpt lat="47.56154" lon="4.30721">
        <ele>359.67</ele>
        <time>2021-03-04T15:02:32Z</time>
      </trkpt>
      <trkpt lat="47.56152" lon="4.30729">
        <ele>359.19</ele>
        <time>2021-03-04T15:02:33Z</time>
      </trkpt>
      <trkpt lat="47.56153" lon="4.30738">
        <ele>358.71</ele>
        <time>2021-03-04T15:02:34Z</time>
      </trkpt>
      <trkpt lat="47.56155" lon="4.30746">
        <ele>358.71</ele>
        <time>2021-03-04T15:02:35Z</time>
      </trkpt>
      <trkpt lat="47.56157" lon="4.30753">
        <ele>359.19</ele>
        <time>2021-03-04T15:02:36Z</time>
      </trkpt>
      <trkpt lat="47.5616" lon="4.30759">
        <ele>359.19</ele>
        <time>2021-03-04T15:02:37Z</time>
      </trkpt>
      <trkpt lat="47.56184" lon="4.30821">
        <ele>363.04</ele>
        <time>2021-03-04T15:02:49Z</time>
      </trkpt>
      <trkpt lat="47.56216" lon="4.30858">
        <ele>366.88</ele>
        <time>2021-03-04T15:03:01Z</time>
      </trkpt>
      <trkpt lat="47.56216" lon="4.3089">
        <ele>369.28</ele>
        <time>2021-03-04T15:03:10Z</time>
      </trkpt>
      <trkpt lat="47.56204" lon="4.30942">
        <ele>373.13</ele>
        <time>2021-03-04T15:03:25Z</time>
      </trkpt>
      <trkpt lat="47.5619" lon="4.31021">
        <ele>375.53</ele>
        <time>2021-03-04T15:03:43Z</time>
      </trkpt>
      <trkpt lat="47.56174" lon="4.31096">
        <ele>376.49</ele>
        <time>2021-03-04T15:04:00Z</time>
      </trkpt>
      <trkpt lat="47.56195" lon="4.31154">
        <ele>376.49</ele>
        <time>2021-03-04T15:04:12Z</time>
      </trkpt>
      <trkpt lat="47.56226" lon="4.31201">
        <ele>375.05</ele>
        <time>2021-03-04T15:04:21Z</time>
      </trkpt>
      <trkpt lat="47.56229" lon="4.31208">
        <ele>375.05</ele>
        <time>2021-03-04T15:04:22Z</time>
      </trkpt>
      <trkpt lat="47.56231" lon="4.31216">
        <ele>375.05</ele>
        <time>2021-03-04T15:04:23Z</time>
      </trkpt>
      <trkpt lat="47.56234" lon="4.31224">
        <ele>375.05</ele>
        <time>2021-03-04T15:04:24Z</time>
      </trkpt>
      <trkpt lat="47.56235" lon="4.31232">
        <ele>374.57</ele>
        <time>2021-03-04T15:04:25Z</time>
      </trkpt>
      <trkpt lat="47.56237" lon="4.3124">
        <ele>374.57</ele>
        <time>2021-03-04T15:04:26Z</time>
      </trkpt>
      <trkpt lat="47.56256" lon="4.3136">
        <ele>369.28</ele>
        <time>2021-03-04T15:04:37Z</time>
      </trkpt>
      <trkpt lat="47.56263" lon="4.31385">
        <ele>368.32</ele>
        <time>2021-03-04T15:04:39Z</time>
      </trkpt>
      <trkpt lat="47.56266" lon="4.31399">
        <ele>367.36</ele>
        <time>2021-03-04T15:04:40Z</time>
      </trkpt>
      <trkpt lat="47.56267" lon="4.31413">
        <ele>366.88</ele>
        <time>2021-03-04T15:04:41Z</time>
      </trkpt>
      <trkpt lat="47.56269" lon="4.31427">
        <ele>366.4</ele>
        <time>2021-03-04T15:04:42Z</time>
      </trkpt>
      <trkpt lat="47.5627" lon="4.31441">
        <ele>365.92</ele>
        <time>2021-03-04T15:04:43Z</time>
      </trkpt>
      <trkpt lat="47.56275" lon="4.31483">
        <ele>364.48</ele>
        <time>2021-03-04T15:04:46Z</time>
      </trkpt>
      <trkpt lat="47.56303" lon="4.31597">
        <ele>360.63</ele>
        <time>2021-03-04T15:04:55Z</time>
      </trkpt>
      <trkpt lat="47.56302" lon="4.3161">
        <ele>360.63</ele>
        <time>2021-03-04T15:04:56Z</time>
      </trkpt>
      <trkpt lat="47.563" lon="4.31623">
        <ele>360.15</ele>
        <time>2021-03-04T15:04:57Z</time>
      </trkpt>
      <trkpt lat="47.56292" lon="4.31672">
        <ele>358.71</ele>
        <time>2021-03-04T15:05:01Z</time>
      </trkpt>
      <trkpt lat="47.5629" lon="4.31684">
        <ele>358.71</ele>
        <time>2021-03-04T15:05:02Z</time>
      </trkpt>
      <trkpt lat="47.56253" lon="4.31829">
        <ele>355.83</ele>
        <time>2021-03-04T15:05:15Z</time>
      </trkpt>
      <trkpt lat="47.56233" lon="4.31978">
        <ele>355.83</ele>
        <time>2021-03-04T15:05:30Z</time>
      </trkpt>
      <trkpt lat="47.56222" lon="4.32055">
        <ele>357.75</ele>
        <time>2021-03-04T15:05:42Z</time>
      </trkpt>
      <trkpt lat="47.56186" lon="4.32119">
        <ele>359.19</ele>
        <time>2021-03-04T15:05:57Z</time>
      </trkpt>
      <trkpt lat="47.5618" lon="4.32127">
        <ele>359.19</ele>
        <time>2021-03-04T15:05:59Z</time>
      </trkpt>
      <trkpt lat="47.56123" lon="4.32194">
        <ele>358.71</ele>
        <time>2021-03-04T15:06:17Z</time>
      </trkpt>
      <trkpt lat="47.5608" lon="4.32237">
        <ele>360.63</ele>
        <time>2021-03-04T15:06:33Z</time>
      </trkpt>
      <trkpt lat="47.56026" lon="4.32284">
        <ele>363.52</ele>
        <time>2021-03-04T15:06:54Z</time>
      </trkpt>
      <trkpt lat="47.55995" lon="4.32287">
        <ele>365.92</ele>
        <time>2021-03-04T15:07:08Z</time>
      </trkpt>
      <trkpt lat="47.55948" lon="4.32251">
        <ele>367.36</ele>
        <time>2021-03-04T15:07:25Z</time>
      </trkpt>
      <trkpt lat="47.55913" lon="4.32229">
        <ele>369.28</ele>
        <time>2021-03-04T15:07:38Z</time>
      </trkpt>
      <trkpt lat="47.55875" lon="4.322">
        <ele>367.36</ele>
        <time>2021-03-04T15:07:50Z</time>
      </trkpt>
      <trkpt lat="47.55817" lon="4.32148">
        <ele>353.9</ele>
        <time>2021-03-04T15:08:06Z</time>
      </trkpt>
      <trkpt lat="47.55778" lon="4.32088">
        <ele>342.85</ele>
        <time>2021-03-04T15:08:20Z</time>
      </trkpt>
      <trkpt lat="47.55775" lon="4.32083">
        <ele>341.89</ele>
        <time>2021-03-04T15:08:21Z</time>
      </trkpt>
      <trkpt lat="47.55741" lon="4.32007">
        <ele>330.35</ele>
        <time>2021-03-04T15:08:33Z</time>
      </trkpt>
      <trkpt lat="47.55706" lon="4.3193">
        <ele>318.33</ele>
        <time>2021-03-04T15:08:46Z</time>
      </trkpt>
      <trkpt lat="47.55672" lon="4.31835">
        <ele>307.76</ele>
        <time>2021-03-04T15:09:00Z</time>
      </trkpt>
      <trkpt lat="47.55656" lon="4.3179">
        <ele>303.91</ele>
        <time>2021-03-04T15:09:07Z</time>
      </trkpt>
      <trkpt lat="47.5563" lon="4.31733">
        <ele>297.67</ele>
        <time>2021-03-04T15:09:19Z</time>
      </trkpt>
      <trkpt lat="47.55604" lon="4.3169">
        <ele>289.01</ele>
        <time>2021-03-04T15:09:33Z</time>
      </trkpt>
      <trkpt lat="47.55602" lon="4.31656">
        <ele>286.61</ele>
        <time>2021-03-04T15:09:43Z</time>
      </trkpt>
      <trkpt lat="47.55597" lon="4.31611">
        <ele>285.65</ele>
        <time>2021-03-04T15:09:54Z</time>
      </trkpt>
      <trkpt lat="47.55594" lon="4.31599">
        <ele>285.17</ele>
        <time>2021-03-04T15:09:56Z</time>
      </trkpt>
      <trkpt lat="47.55591" lon="4.31593">
        <ele>285.17</ele>
        <time>2021-03-04T15:09:57Z</time>
      </trkpt>
      <trkpt lat="47.55583" lon="4.3158">
        <ele>285.65</ele>
        <time>2021-03-04T15:09:59Z</time>
      </trkpt>
      <trkpt lat="47.55577" lon="4.31564">
        <ele>286.61</ele>
        <time>2021-03-04T15:10:01Z</time>
      </trkpt>
      <trkpt lat="47.55545" lon="4.31456">
        <ele>283.25</ele>
        <time>2021-03-04T15:10:10Z</time>
      </trkpt>
      <trkpt lat="47.55528" lon="4.31344">
        <ele>277.48</ele>
        <time>2021-03-04T15:10:21Z</time>
      </trkpt>
      <trkpt lat="47.55518" lon="4.31166">
        <ele>266.9</ele>
        <time>2021-03-04T15:10:37Z</time>
      </trkpt>
      <trkpt lat="47.55499" lon="4.31025">
        <ele>260.65</ele>
        <time>2021-03-04T15:10:49Z</time>
      </trkpt>
      <trkpt lat="47.55492" lon="4.30957">
        <ele>258.73</ele>
        <time>2021-03-04T15:10:56Z</time>
      </trkpt>
      <trkpt lat="47.55488" lon="4.3095">
        <ele>258.73</ele>
        <time>2021-03-04T15:10:57Z</time>
      </trkpt>
      <trkpt lat="47.55484" lon="4.30944">
        <ele>258.25</ele>
        <time>2021-03-04T15:10:58Z</time>
      </trkpt>
      <trkpt lat="47.55478" lon="4.3094">
        <ele>257.77</ele>
        <time>2021-03-04T15:10:59Z</time>
      </trkpt>
      <trkpt lat="47.55472" lon="4.30937">
        <ele>257.29</ele>
        <time>2021-03-04T15:11:00Z</time>
      </trkpt>
      <trkpt lat="47.55466" lon="4.30935">
        <ele>256.33</ele>
        <time>2021-03-04T15:11:01Z</time>
      </trkpt>
      <trkpt lat="47.55453" lon="4.3093">
        <ele>255.37</ele>
        <time>2021-03-04T15:11:03Z</time>
      </trkpt>
      <trkpt lat="47.55448" lon="4.30926">
        <ele>254.89</ele>
        <time>2021-03-04T15:11:04Z</time>
      </trkpt>
      <trkpt lat="47.55446" lon="4.30923">
        <ele>255.37</ele>
        <time>2021-03-04T15:11:05Z</time>
      </trkpt>
      <trkpt lat="47.55445" lon="4.30919">
        <ele>255.37</ele>
        <time>2021-03-04T15:11:06Z</time>
      </trkpt>
      <trkpt lat="47.55446" lon="4.30917">
        <ele>255.37</ele>
        <time>2021-03-04T15:11:07Z</time>
      </trkpt>
      <trkpt lat="47.55446" lon="4.30915">
        <ele>255.85</ele>
        <time>2021-03-04T15:11:08Z</time>
      </trkpt>
      <trkpt lat="47.55446" lon="4.30913">
        <ele>260.17</ele>
        <time>2021-03-04T15:11:22Z</time>
      </trkpt>
      <trkpt lat="47.55443" lon="4.30907">
        <ele>262.58</ele>
        <time>2021-03-04T15:11:38Z</time>
      </trkpt>
      <trkpt lat="47.55442" lon="4.30903">
        <ele>265.94</ele>
        <time>2021-03-04T15:11:42Z</time>
      </trkpt>
      <trkpt lat="47.55442" lon="4.30901">
        <ele>266.42</ele>
        <time>2021-03-04T15:11:43Z</time>
      </trkpt>
      <trkpt lat="47.5544" lon="4.30891">
        <ele>269.31</ele>
        <time>2021-03-04T15:11:55Z</time>
      </trkpt>
      <trkpt lat="47.55427" lon="4.3089">
        <ele>274.11</ele>
        <time>2021-03-04T15:12:14Z</time>
      </trkpt>
      <trkpt lat="47.5542" lon="4.30888">
        <ele>278.44</ele>
        <time>2021-03-04T15:12:36Z</time>
      </trkpt>
    </trkseg>
  </trk>
</gpx>